<?xml version="1.0" encoding="UTF-8" standalone="no" ?>
<gpx xmlns="http://www.topografix.com/GPX/1/1" xmlns:xsi="http://www.w3.org/2001/XMLSchema-instance" xsi:schemaLocation="http://www.topografix.com/GPX/1/1 http://www.topografix.com/GPX/1/1/gpx.xsd" version="1.1" creator="VisuGPX - https://www.visugpx.com">
  <metadata>
    <name>Saint-Martin de Belleville - le Mollard - St Marcel</name>
    <desc><![CDATA[File with points/tracks from LocusWorld/]]></desc>
  </metadata>
  <trk>
    <name><![CDATA[2024-03-23 14:03_1]]></name>
    <extensions>
      <line xmlns="http://www.topografix.com/GPX/gpx_style/0/2">
        <color>0000FF</color>
        <width>4</width>
      </line>
    </extensions>
    <trkseg>
      <trkpt lat="45.38131" lon="6.50414">
        <ele>1373.3</ele>
        <time>2024-03-23T12:05:36.000Z</time>
        <extensions>
          <visugpx:TrkExtension xmlns:visugpx="https://www.visugpx.com/editgpx/">
            <visugpx:node>10</visugpx:node>
            </visugpx:TrkExtension>
        </extensions>
      </trkpt>
      <trkpt lat="45.38131" lon="6.50414">
        <ele>1373</ele>
        <time>2024-03-23T12:05:36.000Z</time>
      </trkpt>
      <trkpt lat="45.38131" lon="6.50416">
        <ele>1372.75</ele>
        <time>2024-03-23T12:05:37.502Z</time>
      </trkpt>
      <trkpt lat="45.38132" lon="6.50416">
        <ele>1372.56</ele>
        <time>2024-03-23T12:05:38.572Z</time>
      </trkpt>
      <trkpt lat="45.38134" lon="6.50428">
        <ele>1372.48</ele>
        <time>2024-03-23T12:05:48.866Z</time>
      </trkpt>
      <trkpt lat="45.38134" lon="6.50424">
        <ele>1372.37</ele>
        <time>2024-03-23T12:05:51.919Z</time>
      </trkpt>
      <trkpt lat="45.38135" lon="6.50422">
        <ele>1372.23</ele>
        <time>2024-03-23T12:05:53.763Z</time>
      </trkpt>
      <trkpt lat="45.38135" lon="6.50425">
        <ele>1372.08</ele>
        <time>2024-03-23T12:05:56.017Z</time>
      </trkpt>
      <trkpt lat="45.38134" lon="6.50425">
        <ele>1371.97</ele>
        <time>2024-03-23T12:05:57.086Z</time>
      </trkpt>
      <trkpt lat="45.38135" lon="6.50424">
        <ele>1371.67</ele>
        <time>2024-03-23T12:05:58.393Z</time>
      </trkpt>
      <trkpt lat="45.38135" lon="6.50422">
        <ele>1371.57</ele>
        <time>2024-03-23T12:05:59.896Z</time>
      </trkpt>
      <trkpt lat="45.38132" lon="6.50426">
        <ele>1371.49</ele>
        <time>2024-03-23T12:06:04.631Z</time>
      </trkpt>
      <trkpt lat="45.38133" lon="6.50414">
        <ele>1371.37</ele>
        <time>2024-03-23T12:06:14.568Z</time>
      </trkpt>
      <trkpt lat="45.38124" lon="6.50417">
        <ele>1369.4</ele>
        <time>2024-03-23T12:06:24.454Z</time>
      </trkpt>
      <trkpt lat="45.38118" lon="6.50423">
        <ele>1369</ele>
        <time>2024-03-23T12:06:32.296Z</time>
      </trkpt>
      <trkpt lat="45.38112" lon="6.50427">
        <ele>1368.3</ele>
        <time>2024-03-23T12:06:39.382Z</time>
      </trkpt>
      <trkpt lat="45.38107" lon="6.50429">
        <ele>1368.6</ele>
        <time>2024-03-23T12:06:47.016Z</time>
      </trkpt>
      <trkpt lat="45.38103" lon="6.50436">
        <ele>1369.7</ele>
        <time>2024-03-23T12:07:01.079Z</time>
      </trkpt>
      <trkpt lat="45.38096" lon="6.50437">
        <ele>1370.3</ele>
        <time>2024-03-23T12:07:12.424Z</time>
      </trkpt>
      <trkpt lat="45.38087" lon="6.50435">
        <ele>1370.7</ele>
        <time>2024-03-23T12:07:25.218Z</time>
      </trkpt>
      <trkpt lat="45.3808" lon="6.50433">
        <ele>1371.3</ele>
        <time>2024-03-23T12:07:36.681Z</time>
      </trkpt>
      <trkpt lat="45.38073" lon="6.50429">
        <ele>1372</ele>
        <time>2024-03-23T12:07:49.163Z</time>
      </trkpt>
      <trkpt lat="45.38063" lon="6.50426">
        <ele>1373.2</ele>
        <time>2024-03-23T12:08:07.601Z</time>
      </trkpt>
      <trkpt lat="45.38046" lon="6.50418">
        <ele>1373.9</ele>
        <time>2024-03-23T12:08:32.359Z</time>
      </trkpt>
      <trkpt lat="45.38038" lon="6.50417">
        <ele>1374.3</ele>
        <time>2024-03-23T12:08:43.858Z</time>
      </trkpt>
      <trkpt lat="45.38028" lon="6.50422">
        <ele>1375.8</ele>
        <time>2024-03-23T12:09:04.721Z</time>
      </trkpt>
      <trkpt lat="45.38019" lon="6.50427">
        <ele>1376.7</ele>
        <time>2024-03-23T12:09:20.727Z</time>
      </trkpt>
      <trkpt lat="45.38011" lon="6.50432">
        <ele>1377.5</ele>
        <time>2024-03-23T12:09:35.123Z</time>
      </trkpt>
      <trkpt lat="45.38004" lon="6.50439">
        <ele>1378.4</ele>
        <time>2024-03-23T12:09:49.904Z</time>
      </trkpt>
      <trkpt lat="45.37996" lon="6.50445">
        <ele>1379.2</ele>
        <time>2024-03-23T12:10:04.645Z</time>
      </trkpt>
      <trkpt lat="45.37987" lon="6.5045">
        <ele>1379.9</ele>
        <time>2024-03-23T12:10:19.559Z</time>
      </trkpt>
      <trkpt lat="45.37982" lon="6.50452">
        <ele>1380.2</ele>
        <time>2024-03-23T12:10:27.193Z</time>
      </trkpt>
      <trkpt lat="45.37974" lon="6.50456">
        <ele>1380.8</ele>
        <time>2024-03-23T12:10:40.208Z</time>
      </trkpt>
      <trkpt lat="45.37968" lon="6.50464">
        <ele>1381.9</ele>
        <time>2024-03-23T12:10:55.940Z</time>
      </trkpt>
      <trkpt lat="45.37962" lon="6.5047">
        <ele>1382.9</ele>
        <time>2024-03-23T12:11:10.105Z</time>
      </trkpt>
      <trkpt lat="45.37969" lon="6.50482">
        <ele>1383.1</ele>
        <time>2024-03-23T12:11:24.280Z</time>
      </trkpt>
      <trkpt lat="45.37973" lon="6.50487">
        <ele>1383.1</ele>
        <time>2024-03-23T12:11:30.787Z</time>
      </trkpt>
      <trkpt lat="45.37969" lon="6.50496">
        <ele>1384.1</ele>
        <time>2024-03-23T12:11:45.097Z</time>
      </trkpt>
      <trkpt lat="45.37964" lon="6.50507">
        <ele>1385.9</ele>
        <time>2024-03-23T12:12:07.325Z</time>
      </trkpt>
      <trkpt lat="45.37954" lon="6.50521">
        <ele>1389</ele>
        <time>2024-03-23T12:12:44.780Z</time>
      </trkpt>
      <trkpt lat="45.37934" lon="6.50552">
        <ele>1396.8</ele>
        <time>2024-03-23T12:14:18.734Z</time>
      </trkpt>
      <trkpt lat="45.37931" lon="6.50556">
        <ele>1397.9</ele>
        <time>2024-03-23T12:14:32.002Z</time>
        <extensions>
          <visugpx:TrkExtension xmlns:visugpx="https://www.visugpx.com/editgpx/">
            <visugpx:node>1</visugpx:node>
            </visugpx:TrkExtension>
        </extensions>
      </trkpt>
      <trkpt lat="45.37929" lon="6.50558">
        <ele>1398.5</ele>
        <time>2024-03-23T12:14:39.207Z</time>
      </trkpt>
      <trkpt lat="45.37924" lon="6.50573">
        <ele>1400.5</ele>
        <time>2024-03-23T12:15:04.881Z</time>
      </trkpt>
      <trkpt lat="45.37916" lon="6.50585">
        <ele>1402.4</ele>
        <time>2024-03-23T12:15:29.703Z</time>
      </trkpt>
      <trkpt lat="45.37911" lon="6.50596">
        <ele>1405.3</ele>
        <time>2024-03-23T12:16:05.908Z</time>
      </trkpt>
      <trkpt lat="45.37904" lon="6.50607">
        <ele>1408.3</ele>
        <time>2024-03-23T12:16:42.497Z</time>
      </trkpt>
      <trkpt lat="45.379" lon="6.50615">
        <ele>1410.4</ele>
        <time>2024-03-23T12:17:08.452Z</time>
      </trkpt>
      <trkpt lat="45.37897" lon="6.50623">
        <ele>1412.3</ele>
        <time>2024-03-23T12:17:31.811Z</time>
      </trkpt>
      <trkpt lat="45.37896" lon="6.50634">
        <ele>1414.2</ele>
        <time>2024-03-23T12:17:54.625Z</time>
      </trkpt>
      <trkpt lat="45.37899" lon="6.50653">
        <ele>1418.8</ele>
        <time>2024-03-23T12:18:53.393Z</time>
      </trkpt>
      <trkpt lat="45.37902" lon="6.50668">
        <ele>1422.5</ele>
        <time>2024-03-23T12:19:40.743Z</time>
      </trkpt>
      <trkpt lat="45.37897" lon="6.50667">
        <ele>1422.9</ele>
        <time>2024-03-23T12:19:48.718Z</time>
        <extensions>
          <visugpx:TrkExtension xmlns:visugpx="https://www.visugpx.com/editgpx/">
            <visugpx:node>2</visugpx:node>
            </visugpx:TrkExtension>
        </extensions>
      </trkpt>
      <trkpt lat="45.37896" lon="6.50667">
        <ele>1423.1</ele>
        <time>2024-03-23T12:19:51.175Z</time>
      </trkpt>
      <trkpt lat="45.37887" lon="6.50665">
        <ele>1423.9</ele>
        <time>2024-03-23T12:20:05.992Z</time>
      </trkpt>
      <trkpt lat="45.3788" lon="6.5066">
        <ele>1424.3</ele>
        <time>2024-03-23T12:20:17.253Z</time>
      </trkpt>
      <trkpt lat="45.37872" lon="6.50655">
        <ele>1425.2</ele>
        <time>2024-03-23T12:20:32.233Z</time>
      </trkpt>
      <trkpt lat="45.37864" lon="6.50649">
        <ele>1426.3</ele>
        <time>2024-03-23T12:20:48.795Z</time>
      </trkpt>
      <trkpt lat="45.37858" lon="6.50643">
        <ele>1426.2</ele>
        <time>2024-03-23T12:20:57.392Z</time>
      </trkpt>
      <trkpt lat="45.37851" lon="6.50639">
        <ele>1426.1</ele>
        <time>2024-03-23T12:21:06.246Z</time>
      </trkpt>
      <trkpt lat="45.37847" lon="6.50637">
        <ele>1426.5</ele>
        <time>2024-03-23T12:21:13.299Z</time>
      </trkpt>
      <trkpt lat="45.37846" lon="6.50631">
        <ele>1426.4</ele>
        <time>2024-03-23T12:21:18.236Z</time>
        <extensions>
          <visugpx:TrkExtension xmlns:visugpx="https://www.visugpx.com/editgpx/">
            <visugpx:node>3</visugpx:node>
            </visugpx:TrkExtension>
        </extensions>
      </trkpt>
      <trkpt lat="45.37846" lon="6.50629">
        <ele>1426.3</ele>
        <time>2024-03-23T12:21:19.738Z</time>
      </trkpt>
      <trkpt lat="45.37844" lon="6.50622">
        <ele>1426.5</ele>
        <time>2024-03-23T12:21:27.045Z</time>
      </trkpt>
      <trkpt lat="45.37835" lon="6.50605">
        <ele>1427.9</ele>
        <time>2024-03-23T12:21:51.859Z</time>
      </trkpt>
      <trkpt lat="45.37827" lon="6.50592">
        <ele>1428.1</ele>
        <time>2024-03-23T12:22:07.479Z</time>
      </trkpt>
      <trkpt lat="45.3782" lon="6.50581">
        <ele>1428.1</ele>
        <time>2024-03-23T12:22:20.223Z</time>
      </trkpt>
      <trkpt lat="45.37812" lon="6.50572">
        <ele>1428.6</ele>
        <time>2024-03-23T12:22:34.786Z</time>
      </trkpt>
      <trkpt lat="45.37804" lon="6.50567">
        <ele>1429.4</ele>
        <time>2024-03-23T12:22:49.182Z</time>
      </trkpt>
      <trkpt lat="45.37809" lon="6.50582">
        <ele>1430.2</ele>
        <time>2024-03-23T12:23:06.954Z</time>
      </trkpt>
      <trkpt lat="45.37811" lon="6.50595">
        <ele>1431.3</ele>
        <time>2024-03-23T12:23:23.834Z</time>
      </trkpt>
      <trkpt lat="45.37811" lon="6.50601">
        <ele>1431.9</ele>
        <time>2024-03-23T12:23:32.156Z</time>
      </trkpt>
      <trkpt lat="45.37809" lon="6.50607">
        <ele>1432.9</ele>
        <time>2024-03-23T12:23:44.287Z</time>
      </trkpt>
      <trkpt lat="45.37804" lon="6.50612">
        <ele>1434.1</ele>
        <time>2024-03-23T12:23:59.092Z</time>
      </trkpt>
      <trkpt lat="45.37803" lon="6.50612">
        <ele>1434.2</ele>
        <time>2024-03-23T12:24:00.789Z</time>
        <extensions>
          <visugpx:TrkExtension xmlns:visugpx="https://www.visugpx.com/editgpx/">
            <visugpx:node>4</visugpx:node>
            </visugpx:TrkExtension>
        </extensions>
      </trkpt>
      <trkpt lat="45.37798" lon="6.50614">
        <ele>1434.5</ele>
        <time>2024-03-23T12:24:08.422Z</time>
      </trkpt>
      <trkpt lat="45.37785" lon="6.50614">
        <ele>1435.6</ele>
        <time>2024-03-23T12:24:29.337Z</time>
      </trkpt>
      <trkpt lat="45.37771" lon="6.50614">
        <ele>1437</ele>
        <time>2024-03-23T12:24:53.091Z</time>
      </trkpt>
      <trkpt lat="45.37758" lon="6.50619">
        <ele>1438.9</ele>
        <time>2024-03-23T12:25:19.556Z</time>
      </trkpt>
      <trkpt lat="45.37752" lon="6.50623">
        <ele>1440</ele>
        <time>2024-03-23T12:25:33.843Z</time>
      </trkpt>
      <trkpt lat="45.37746" lon="6.50628">
        <ele>1441.3</ele>
        <time>2024-03-23T12:25:50.084Z</time>
      </trkpt>
      <trkpt lat="45.3774" lon="6.50633">
        <ele>1442.5</ele>
        <time>2024-03-23T12:26:05.454Z</time>
      </trkpt>
      <trkpt lat="45.37732" lon="6.50645">
        <ele>1445</ele>
        <time>2024-03-23T12:26:35.767Z</time>
      </trkpt>
      <trkpt lat="45.37729" lon="6.50648">
        <ele>1446</ele>
        <time>2024-03-23T12:26:47.856Z</time>
      </trkpt>
      <trkpt lat="45.37724" lon="6.50648">
        <ele>1446.7</ele>
        <time>2024-03-23T12:26:57.644Z</time>
      </trkpt>
      <trkpt lat="45.3772" lon="6.50646">
        <ele>1446.9</ele>
        <time>2024-03-23T12:27:03.662Z</time>
      </trkpt>
      <trkpt lat="45.37716" lon="6.50646">
        <ele>1447.7</ele>
        <time>2024-03-23T12:27:13.492Z</time>
      </trkpt>
      <trkpt lat="45.37715" lon="6.5065">
        <ele>1448.5</ele>
        <time>2024-03-23T12:27:23.144Z</time>
      </trkpt>
      <trkpt lat="45.37715" lon="6.50653">
        <ele>1449.1</ele>
        <time>2024-03-23T12:27:30.447Z</time>
      </trkpt>
      <trkpt lat="45.37718" lon="6.50656">
        <ele>1449.2</ele>
        <time>2024-03-23T12:27:35.327Z</time>
      </trkpt>
      <trkpt lat="45.37724" lon="6.50658">
        <ele>1448.8</ele>
        <time>2024-03-23T12:27:41.918Z</time>
      </trkpt>
      <trkpt lat="45.37725" lon="6.50661">
        <ele>1449.2</ele>
        <time>2024-03-23T12:27:47.053Z</time>
      </trkpt>
      <trkpt lat="45.37724" lon="6.50665">
        <ele>1450.3</ele>
        <time>2024-03-23T12:28:01.682Z</time>
      </trkpt>
      <trkpt lat="45.3772" lon="6.50666">
        <ele>1451</ele>
        <time>2024-03-23T12:28:10.652Z</time>
      </trkpt>
      <trkpt lat="45.37716" lon="6.50665">
        <ele>1451.1</ele>
        <time>2024-03-23T12:28:16.014Z</time>
      </trkpt>
      <trkpt lat="45.37712" lon="6.50663">
        <ele>1451.1</ele>
        <time>2024-03-23T12:28:21.196Z</time>
      </trkpt>
      <trkpt lat="45.37706" lon="6.50663">
        <ele>1451.7</ele>
        <time>2024-03-23T12:28:31.376Z</time>
      </trkpt>
      <trkpt lat="45.37702" lon="6.50668">
        <ele>1452.9</ele>
        <time>2024-03-23T12:28:45.844Z</time>
      </trkpt>
      <trkpt lat="45.37696" lon="6.50673">
        <ele>1454.9</ele>
        <time>2024-03-23T12:29:10.235Z</time>
      </trkpt>
      <trkpt lat="45.37689" lon="6.50675">
        <ele>1456.4</ele>
        <time>2024-03-23T12:29:28.491Z</time>
      </trkpt>
      <trkpt lat="45.37683" lon="6.50675">
        <ele>1457.1</ele>
        <time>2024-03-23T12:29:39.286Z</time>
      </trkpt>
      <trkpt lat="45.37678" lon="6.50678">
        <ele>1458.4</ele>
        <time>2024-03-23T12:29:54.901Z</time>
      </trkpt>
      <trkpt lat="45.37673" lon="6.50678">
        <ele>1459</ele>
        <time>2024-03-23T12:30:04.005Z</time>
      </trkpt>
      <trkpt lat="45.37673" lon="6.50688">
        <ele>1460.8</ele>
        <time>2024-03-23T12:30:25.642Z</time>
        <extensions>
          <visugpx:TrkExtension xmlns:visugpx="https://www.visugpx.com/editgpx/">
            <visugpx:node>5</visugpx:node>
            </visugpx:TrkExtension>
        </extensions>
      </trkpt>
      <trkpt lat="45.37673" lon="6.50713">
        <ele>1462.5</ele>
        <time>2024-03-23T12:30:55.108Z</time>
      </trkpt>
      <trkpt lat="45.37677" lon="6.50718">
        <ele>1462.5</ele>
        <time>2024-03-23T12:31:01.615Z</time>
      </trkpt>
      <trkpt lat="45.37682" lon="6.50722">
        <ele>1462.4</ele>
        <time>2024-03-23T12:31:08.263Z</time>
      </trkpt>
      <trkpt lat="45.37655" lon="6.50751">
        <ele>1470.1</ele>
        <time>2024-03-23T12:32:41.018Z</time>
      </trkpt>
      <trkpt lat="45.37638" lon="6.50768">
        <ele>1476.8</ele>
        <time>2024-03-23T12:34:05.307Z</time>
      </trkpt>
      <trkpt lat="45.37631" lon="6.50772">
        <ele>1479.3</ele>
        <time>2024-03-23T12:34:37.069Z</time>
      </trkpt>
      <trkpt lat="45.37621" lon="6.50774">
        <ele>1482.1</ele>
        <time>2024-03-23T12:35:10.998Z</time>
      </trkpt>
      <trkpt lat="45.37603" lon="6.50778">
        <ele>1486.8</ele>
        <time>2024-03-23T12:36:07.517Z</time>
      </trkpt>
      <trkpt lat="45.37588" lon="6.50781">
        <ele>1490.3</ele>
        <time>2024-03-23T12:36:49.630Z</time>
      </trkpt>
      <trkpt lat="45.37577" lon="6.50791">
        <ele>1493.5</ele>
        <time>2024-03-23T12:37:28.053Z</time>
      </trkpt>
      <trkpt lat="45.37575" lon="6.50792">
        <ele>1493.9</ele>
        <time>2024-03-23T12:37:33.038Z</time>
        <extensions>
          <visugpx:TrkExtension xmlns:visugpx="https://www.visugpx.com/editgpx/">
            <visugpx:node>6</visugpx:node>
            </visugpx:TrkExtension>
        </extensions>
      </trkpt>
      <trkpt lat="45.37571" lon="6.50795">
        <ele>1494.8</ele>
        <time>2024-03-23T12:37:44.108Z</time>
      </trkpt>
      <trkpt lat="45.37566" lon="6.50805">
        <ele>1496.4</ele>
        <time>2024-03-23T12:38:04.140Z</time>
      </trkpt>
      <trkpt lat="45.37549" lon="6.50841">
        <ele>1502.8</ele>
        <time>2024-03-23T12:39:22.034Z</time>
      </trkpt>
      <trkpt lat="45.37542" lon="6.50857">
        <ele>1505.9</ele>
        <time>2024-03-23T12:39:59.304Z</time>
      </trkpt>
      <trkpt lat="45.37534" lon="6.50874">
        <ele>1509.3</ele>
        <time>2024-03-23T12:40:40.161Z</time>
      </trkpt>
      <trkpt lat="45.37525" lon="6.50893">
        <ele>1513</ele>
        <time>2024-03-23T12:41:24.697Z</time>
      </trkpt>
      <trkpt lat="45.37516" lon="6.50913">
        <ele>1518.4</ele>
        <time>2024-03-23T12:42:32.715Z</time>
      </trkpt>
      <trkpt lat="45.3751" lon="6.50928">
        <ele>1522</ele>
        <time>2024-03-23T12:43:16.924Z</time>
      </trkpt>
      <trkpt lat="45.37501" lon="6.50952">
        <ele>1526.4</ele>
        <time>2024-03-23T12:44:09.880Z</time>
      </trkpt>
      <trkpt lat="45.37495" lon="6.50968">
        <ele>1530.5</ele>
        <time>2024-03-23T12:45:01.422Z</time>
      </trkpt>
      <trkpt lat="45.37492" lon="6.50984">
        <ele>1534.1</ele>
        <time>2024-03-23T12:45:46.121Z</time>
      </trkpt>
      <trkpt lat="45.37492" lon="6.50986">
        <ele>1534.5</ele>
        <time>2024-03-23T12:45:50.990Z</time>
        <extensions>
          <visugpx:TrkExtension xmlns:visugpx="https://www.visugpx.com/editgpx/">
            <visugpx:node>7</visugpx:node>
            </visugpx:TrkExtension>
        </extensions>
      </trkpt>
      <trkpt lat="45.3749" lon="6.5099">
        <ele>1535.7</ele>
        <time>2024-03-23T12:46:06.535Z</time>
      </trkpt>
      <trkpt lat="45.3748" lon="6.51015">
        <ele>1542.7</ele>
        <time>2024-03-23T12:47:37.046Z</time>
      </trkpt>
      <trkpt lat="45.37467" lon="6.51045">
        <ele>1549.1</ele>
        <time>2024-03-23T12:48:54.017Z</time>
      </trkpt>
      <trkpt lat="45.37467" lon="6.51061">
        <ele>1551</ele>
        <time>2024-03-23T12:49:18.532Z</time>
      </trkpt>
      <trkpt lat="45.37469" lon="6.51075">
        <ele>1552.9</ele>
        <time>2024-03-23T12:49:42.190Z</time>
      </trkpt>
      <trkpt lat="45.37473" lon="6.51091">
        <ele>1555.6</ele>
        <time>2024-03-23T12:50:14.731Z</time>
      </trkpt>
      <trkpt lat="45.37486" lon="6.51126">
        <ele>1564.2</ele>
        <time>2024-03-23T12:52:01.488Z</time>
      </trkpt>
      <trkpt lat="45.37496" lon="6.51151">
        <ele>1569.9</ele>
        <time>2024-03-23T12:53:10.748Z</time>
      </trkpt>
      <trkpt lat="45.37507" lon="6.51167">
        <ele>1572.6</ele>
        <time>2024-03-23T12:53:45.395Z</time>
      </trkpt>
      <trkpt lat="45.37521" lon="6.51207">
        <ele>1578</ele>
        <time>2024-03-23T12:54:54.643Z</time>
      </trkpt>
      <trkpt lat="45.37542" lon="6.51275">
        <ele>1584.3</ele>
        <time>2024-03-23T12:56:29.903Z</time>
      </trkpt>
      <trkpt lat="45.37561" lon="6.51342">
        <ele>1595.8</ele>
        <time>2024-03-23T12:58:48.491Z</time>
      </trkpt>
      <trkpt lat="45.37553" lon="6.51344">
        <ele>1595.4</ele>
        <time>2024-03-23T12:58:57.178Z</time>
      </trkpt>
      <trkpt lat="45.37544" lon="6.51345">
        <ele>1594.8</ele>
        <time>2024-03-23T12:59:06.834Z</time>
      </trkpt>
      <trkpt lat="45.37539" lon="6.51348">
        <ele>1594.9</ele>
        <time>2024-03-23T12:59:13.858Z</time>
      </trkpt>
      <trkpt lat="45.37534" lon="6.51347">
        <ele>1594.4</ele>
        <time>2024-03-23T12:59:19.258Z</time>
      </trkpt>
      <trkpt lat="45.37527" lon="6.51341">
        <ele>1593.1</ele>
        <time>2024-03-23T12:59:27.997Z</time>
      </trkpt>
      <trkpt lat="45.37523" lon="6.51335">
        <ele>1592</ele>
        <time>2024-03-23T12:59:34.212Z</time>
      </trkpt>
      <trkpt lat="45.37517" lon="6.51324">
        <ele>1590.4</ele>
        <time>2024-03-23T12:59:44.676Z</time>
      </trkpt>
      <trkpt lat="45.3751" lon="6.51313">
        <ele>1588.9</ele>
        <time>2024-03-23T12:59:55.827Z</time>
      </trkpt>
      <trkpt lat="45.37509" lon="6.51311">
        <ele>1588.7</ele>
        <time>2024-03-23T12:59:57.672Z</time>
        <extensions>
          <visugpx:TrkExtension xmlns:visugpx="https://www.visugpx.com/editgpx/">
            <visugpx:node>8</visugpx:node>
            </visugpx:TrkExtension>
        </extensions>
      </trkpt>
      <trkpt lat="45.37505" lon="6.51303">
        <ele>1587.6</ele>
        <time>2024-03-23T13:00:05.049Z</time>
      </trkpt>
      <trkpt lat="45.37499" lon="6.51297">
        <ele>1586.6</ele>
        <time>2024-03-23T13:00:12.892Z</time>
      </trkpt>
      <trkpt lat="45.37499" lon="6.51305">
        <ele>1587.8</ele>
        <time>2024-03-23T13:00:27.458Z</time>
      </trkpt>
      <trkpt lat="45.375" lon="6.51319">
        <ele>1589.5</ele>
        <time>2024-03-23T13:00:49.260Z</time>
      </trkpt>
      <trkpt lat="45.37499" lon="6.51338">
        <ele>1591.2</ele>
        <time>2024-03-23T13:01:14.252Z</time>
      </trkpt>
      <trkpt lat="45.37501" lon="6.5136">
        <ele>1593</ele>
        <time>2024-03-23T13:01:42.175Z</time>
      </trkpt>
      <trkpt lat="45.37505" lon="6.51376">
        <ele>1594.8</ele>
        <time>2024-03-23T13:02:06.483Z</time>
      </trkpt>
      <trkpt lat="45.37512" lon="6.5139">
        <ele>1597.2</ele>
        <time>2024-03-23T13:02:36.010Z</time>
      </trkpt>
      <trkpt lat="45.37522" lon="6.51405">
        <ele>1600.1</ele>
        <time>2024-03-23T13:03:11.656Z</time>
      </trkpt>
      <trkpt lat="45.37533" lon="6.51417">
        <ele>1603.2</ele>
        <time>2024-03-23T13:03:49.061Z</time>
      </trkpt>
      <trkpt lat="45.37543" lon="6.51427">
        <ele>1606</ele>
        <time>2024-03-23T13:04:22.772Z</time>
      </trkpt>
      <trkpt lat="45.37547" lon="6.51436">
        <ele>1607.5</ele>
        <time>2024-03-23T13:04:41.192Z</time>
      </trkpt>
      <trkpt lat="45.37549" lon="6.51448">
        <ele>1608.8</ele>
        <time>2024-03-23T13:04:58.791Z</time>
      </trkpt>
      <trkpt lat="45.3755" lon="6.51464">
        <ele>1609.9</ele>
        <time>2024-03-23T13:05:17.768Z</time>
      </trkpt>
      <trkpt lat="45.37549" lon="6.51476">
        <ele>1610.7</ele>
        <time>2024-03-23T13:05:31.885Z</time>
      </trkpt>
      <trkpt lat="45.37544" lon="6.51502">
        <ele>1613</ele>
        <time>2024-03-23T13:06:06.545Z</time>
      </trkpt>
      <trkpt lat="45.3754" lon="6.51522">
        <ele>1615.6</ele>
        <time>2024-03-23T13:06:39.510Z</time>
      </trkpt>
      <trkpt lat="45.37537" lon="6.51532">
        <ele>1616.7</ele>
        <time>2024-03-23T13:06:54.683Z</time>
      </trkpt>
      <trkpt lat="45.37542" lon="6.51547">
        <ele>1618.3</ele>
        <time>2024-03-23T13:07:17.280Z</time>
      </trkpt>
      <trkpt lat="45.37547" lon="6.51562">
        <ele>1620.5</ele>
        <time>2024-03-23T13:07:44.699Z</time>
      </trkpt>
      <trkpt lat="45.37552" lon="6.51575">
        <ele>1622.7</ele>
        <time>2024-03-23T13:08:11.448Z</time>
      </trkpt>
      <trkpt lat="45.37559" lon="6.51588">
        <ele>1624.9</ele>
        <time>2024-03-23T13:08:38.770Z</time>
      </trkpt>
      <trkpt lat="45.37567" lon="6.51601">
        <ele>1627.1</ele>
        <time>2024-03-23T13:09:06.507Z</time>
      </trkpt>
      <trkpt lat="45.37575" lon="6.51612">
        <ele>1628.8</ele>
        <time>2024-03-23T13:09:29.336Z</time>
      </trkpt>
      <trkpt lat="45.37579" lon="6.51618">
        <ele>1629.3</ele>
        <time>2024-03-23T13:09:38.730Z</time>
      </trkpt>
      <trkpt lat="45.37585" lon="6.51623">
        <ele>1630</ele>
        <time>2024-03-23T13:09:50.554Z</time>
      </trkpt>
      <trkpt lat="45.37592" lon="6.51627">
        <ele>1630.8</ele>
        <time>2024-03-23T13:10:03.626Z</time>
      </trkpt>
      <trkpt lat="45.37599" lon="6.51634">
        <ele>1631.8</ele>
        <time>2024-03-23T13:10:19.031Z</time>
      </trkpt>
      <trkpt lat="45.37607" lon="6.51646">
        <ele>1632.7</ele>
        <time>2024-03-23T13:10:37.276Z</time>
      </trkpt>
      <trkpt lat="45.37614" lon="6.51651">
        <ele>1633.3</ele>
        <time>2024-03-23T13:10:49.537Z</time>
      </trkpt>
      <trkpt lat="45.37624" lon="6.51657">
        <ele>1633.9</ele>
        <time>2024-03-23T13:11:05.358Z</time>
      </trkpt>
      <trkpt lat="45.37632" lon="6.51664">
        <ele>1634</ele>
        <time>2024-03-23T13:11:17.222Z</time>
        <extensions>
          <visugpx:TrkExtension xmlns:visugpx="https://www.visugpx.com/editgpx/">
            <visugpx:node>9</visugpx:node>
            </visugpx:TrkExtension>
        </extensions>
      </trkpt>
      <trkpt lat="45.3764" lon="6.51667">
        <ele>1629.87</ele>
        <time>2024-03-23T13:11:26.070Z</time>
      </trkpt>
      <trkpt lat="45.37642" lon="6.51669">
        <ele>1630.1</ele>
        <time>2024-03-23T13:11:30.133Z</time>
      </trkpt>
      <trkpt lat="45.37649" lon="6.51673">
        <ele>1632.31</ele>
        <time>2024-03-23T13:11:57.189Z</time>
      </trkpt>
      <trkpt lat="45.37656" lon="6.51681">
        <ele>1636.41</ele>
        <time>2024-03-23T13:12:54.795Z</time>
      </trkpt>
      <trkpt lat="45.37666" lon="6.51688">
        <ele>1636.1</ele>
        <time>2024-03-23T13:13:07.316Z</time>
      </trkpt>
      <trkpt lat="45.37677" lon="6.51696">
        <ele>1635.91</ele>
        <time>2024-03-23T13:13:21.723Z</time>
      </trkpt>
      <trkpt lat="45.37689" lon="6.51701">
        <ele>1635.73</ele>
        <time>2024-03-23T13:13:36.350Z</time>
      </trkpt>
      <trkpt lat="45.37699" lon="6.51707">
        <ele>1635.42</ele>
        <time>2024-03-23T13:13:48.517Z</time>
      </trkpt>
      <trkpt lat="45.37707" lon="6.51704">
        <ele>1635.72</ele>
        <time>2024-03-23T13:13:59.853Z</time>
      </trkpt>
      <trkpt lat="45.37711" lon="6.51707">
        <ele>1636.17</ele>
        <time>2024-03-23T13:14:07.511Z</time>
      </trkpt>
      <trkpt lat="45.37711" lon="6.51708">
        <ele>1636.56</ele>
        <time>2024-03-23T13:14:12.019Z</time>
      </trkpt>
      <trkpt lat="45.37719" lon="6.51702">
        <ele>1643.69</ele>
        <time>2024-03-23T13:15:10.046Z</time>
      </trkpt>
      <trkpt lat="45.37726" lon="6.51703">
        <ele>1645.9</ele>
        <time>2024-03-23T13:15:37.611Z</time>
      </trkpt>
      <trkpt lat="45.37733" lon="6.51711">
        <ele>1645.65</ele>
        <time>2024-03-23T13:15:47.696Z</time>
      </trkpt>
      <trkpt lat="45.37742" lon="6.5172">
        <ele>1644.94</ele>
        <time>2024-03-23T13:15:59.460Z</time>
      </trkpt>
      <trkpt lat="45.3775" lon="6.51729">
        <ele>1644.29</ele>
        <time>2024-03-23T13:16:10.365Z</time>
      </trkpt>
      <trkpt lat="45.37757" lon="6.51735">
        <ele>1643.78</ele>
        <time>2024-03-23T13:16:19.105Z</time>
      </trkpt>
      <trkpt lat="45.3776" lon="6.51735">
        <ele>1644.72</ele>
        <time>2024-03-23T13:16:30.820Z</time>
      </trkpt>
      <trkpt lat="45.37759" lon="6.51733">
        <ele>1644.42</ele>
        <time>2024-03-23T13:16:32.664Z</time>
      </trkpt>
      <trkpt lat="45.3776" lon="6.51732">
        <ele>1644.01</ele>
        <time>2024-03-23T13:16:33.971Z</time>
      </trkpt>
      <trkpt lat="45.37765" lon="6.51743">
        <ele>1643.48</ele>
        <time>2024-03-23T13:16:43.815Z</time>
      </trkpt>
      <trkpt lat="45.37766" lon="6.51758">
        <ele>1643.27</ele>
        <time>2024-03-23T13:16:55.994Z</time>
      </trkpt>
      <trkpt lat="45.3777" lon="6.51774">
        <ele>1643.47</ele>
        <time>2024-03-23T13:17:11.357Z</time>
      </trkpt>
      <trkpt lat="45.37775" lon="6.51786">
        <ele>1643.41</ele>
        <time>2024-03-23T13:17:23.114Z</time>
      </trkpt>
      <trkpt lat="45.37778" lon="6.51797">
        <ele>1643.27</ele>
        <time>2024-03-23T13:17:32.737Z</time>
      </trkpt>
      <trkpt lat="45.37784" lon="6.51809">
        <ele>1643.56</ele>
        <time>2024-03-23T13:17:46.545Z</time>
      </trkpt>
      <trkpt lat="45.37788" lon="6.5182">
        <ele>1644.11</ele>
        <time>2024-03-23T13:17:59.567Z</time>
      </trkpt>
      <trkpt lat="45.3779" lon="6.5183">
        <ele>1644.38</ele>
        <time>2024-03-23T13:18:09.597Z</time>
      </trkpt>
      <trkpt lat="45.37782" lon="6.51836">
        <ele>1644.71</ele>
        <time>2024-03-23T13:18:21.996Z</time>
      </trkpt>
      <trkpt lat="45.3779" lon="6.51846">
        <ele>1645.27</ele>
        <time>2024-03-23T13:18:37.380Z</time>
      </trkpt>
      <trkpt lat="45.37796" lon="6.51854">
        <ele>1646.2</ele>
        <time>2024-03-23T13:18:51.987Z</time>
      </trkpt>
      <trkpt lat="45.37793" lon="6.51864">
        <ele>1647.27</ele>
        <time>2024-03-23T13:19:06.943Z</time>
      </trkpt>
      <trkpt lat="45.37791" lon="6.5186">
        <ele>1648.38</ele>
        <time>2024-03-23T13:19:20.897Z</time>
      </trkpt>
      <trkpt lat="45.37787" lon="6.51859">
        <ele>1650.13</ele>
        <time>2024-03-23T13:19:45.911Z</time>
      </trkpt>
      <trkpt lat="45.37784" lon="6.51859">
        <ele>1651.46</ele>
        <time>2024-03-23T13:20:05.119Z</time>
      </trkpt>
      <trkpt lat="45.37781" lon="6.51856">
        <ele>1652.73</ele>
        <time>2024-03-23T13:20:21.541Z</time>
      </trkpt>
      <trkpt lat="45.3778" lon="6.51861">
        <ele>1653.77</ele>
        <time>2024-03-23T13:20:34.200Z</time>
      </trkpt>
      <trkpt lat="45.37781" lon="6.51862">
        <ele>1654.57</ele>
        <time>2024-03-23T13:20:42.042Z</time>
      </trkpt>
      <trkpt lat="45.37777" lon="6.51866">
        <ele>1655.35</ele>
        <time>2024-03-23T13:20:52.330Z</time>
      </trkpt>
      <trkpt lat="45.37777" lon="6.51871">
        <ele>1656.18</ele>
        <time>2024-03-23T13:21:02.304Z</time>
      </trkpt>
      <trkpt lat="45.37778" lon="6.51874">
        <ele>1657.17</ele>
        <time>2024-03-23T13:21:16.368Z</time>
      </trkpt>
      <trkpt lat="45.37775" lon="6.51874">
        <ele>1658.54</ele>
        <time>2024-03-23T13:21:35.620Z</time>
      </trkpt>
      <trkpt lat="45.37769" lon="6.51879">
        <ele>1659.61</ele>
        <time>2024-03-23T13:21:49.946Z</time>
      </trkpt>
      <trkpt lat="45.37768" lon="6.5188">
        <ele>1660.53</ele>
        <time>2024-03-23T13:21:57.788Z</time>
      </trkpt>
      <trkpt lat="45.37768" lon="6.51881">
        <ele>1661.21</ele>
        <time>2024-03-23T13:22:02.296Z</time>
      </trkpt>
      <trkpt lat="45.37768" lon="6.5188">
        <ele>1663.28</ele>
        <time>2024-03-23T13:22:06.803Z</time>
      </trkpt>
      <trkpt lat="45.37768" lon="6.51879">
        <ele>1663.84</ele>
        <time>2024-03-23T13:22:11.311Z</time>
      </trkpt>
      <trkpt lat="45.37768" lon="6.51877">
        <ele>1664.1</ele>
        <time>2024-03-23T13:22:14.569Z</time>
      </trkpt>
      <trkpt lat="45.37769" lon="6.51878">
        <ele>1664.28</ele>
        <time>2024-03-23T13:22:17.026Z</time>
      </trkpt>
      <trkpt lat="45.37769" lon="6.51879">
        <ele>1664.53</ele>
        <time>2024-03-23T13:22:20.297Z</time>
      </trkpt>
      <trkpt lat="45.3777" lon="6.51879">
        <ele>1664.58</ele>
        <time>2024-03-23T13:22:21.730Z</time>
      </trkpt>
      <trkpt lat="45.3777" lon="6.5188">
        <ele>1664.38</ele>
        <time>2024-03-23T13:22:22.481Z</time>
      </trkpt>
      <trkpt lat="45.37769" lon="6.5188">
        <ele>1664.52</ele>
        <time>2024-03-23T13:22:24.438Z</time>
      </trkpt>
      <trkpt lat="45.37768" lon="6.51881">
        <ele>1664.86</ele>
        <time>2024-03-23T13:22:28.560Z</time>
      </trkpt>
      <trkpt lat="45.37767" lon="6.51879">
        <ele>1671.3</ele>
        <time>2024-03-23T13:22:39.627Z</time>
      </trkpt>
      <trkpt lat="45.37766" lon="6.51879">
        <ele>1671.78</ele>
        <time>2024-03-23T13:22:46.044Z</time>
      </trkpt>
      <trkpt lat="45.37759" lon="6.51884">
        <ele>1671.46</ele>
        <time>2024-03-23T13:22:54.512Z</time>
      </trkpt>
      <trkpt lat="45.37752" lon="6.51889">
        <ele>1670.94</ele>
        <time>2024-03-23T13:23:02.888Z</time>
      </trkpt>
      <trkpt lat="45.37749" lon="6.51894">
        <ele>1670.52</ele>
        <time>2024-03-23T13:23:07.829Z</time>
      </trkpt>
      <trkpt lat="45.37758" lon="6.51901">
        <ele>1670.48</ele>
        <time>2024-03-23T13:23:20.215Z</time>
      </trkpt>
      <trkpt lat="45.37765" lon="6.5191">
        <ele>1670.68</ele>
        <time>2024-03-23T13:23:32.533Z</time>
      </trkpt>
      <trkpt lat="45.37771" lon="6.51915">
        <ele>1671.1</ele>
        <time>2024-03-23T13:23:42.842Z</time>
      </trkpt>
      <trkpt lat="45.37767" lon="6.51913">
        <ele>1671.38</ele>
        <time>2024-03-23T13:23:49.247Z</time>
      </trkpt>
      <trkpt lat="45.3777" lon="6.51914">
        <ele>1671.72</ele>
        <time>2024-03-23T13:23:54.668Z</time>
      </trkpt>
      <trkpt lat="45.3777" lon="6.5191">
        <ele>1672.03</ele>
        <time>2024-03-23T13:23:59.612Z</time>
      </trkpt>
      <trkpt lat="45.37769" lon="6.51908">
        <ele>1672.68</ele>
        <time>2024-03-23T13:24:08.345Z</time>
      </trkpt>
      <trkpt lat="45.3777" lon="6.51906">
        <ele>1673.43</ele>
        <time>2024-03-23T13:24:19.104Z</time>
      </trkpt>
      <trkpt lat="45.37769" lon="6.51907">
        <ele>1674.16</ele>
        <time>2024-03-23T13:24:26.946Z</time>
      </trkpt>
      <trkpt lat="45.37769" lon="6.51908">
        <ele>1674.81</ele>
        <time>2024-03-23T13:24:31.454Z</time>
      </trkpt>
      <trkpt lat="45.37769" lon="6.51914">
        <ele>1674.97</ele>
        <time>2024-03-23T13:24:37.261Z</time>
      </trkpt>
      <trkpt lat="45.37767" lon="6.51913">
        <ele>1675.32</ele>
        <time>2024-03-23T13:24:41.816Z</time>
      </trkpt>
      <trkpt lat="45.37768" lon="6.51911">
        <ele>1675.81</ele>
        <time>2024-03-23T13:24:47.778Z</time>
      </trkpt>
      <trkpt lat="45.3777" lon="6.51913">
        <ele>1676.02</ele>
        <time>2024-03-23T13:24:51.728Z</time>
      </trkpt>
      <trkpt lat="45.37773" lon="6.5192">
        <ele>1676.21</ele>
        <time>2024-03-23T13:24:59.537Z</time>
      </trkpt>
      <trkpt lat="45.37779" lon="6.51932">
        <ele>1676.92</ele>
        <time>2024-03-23T13:25:15.305Z</time>
      </trkpt>
      <trkpt lat="45.37779" lon="6.51942">
        <ele>1677.88</ele>
        <time>2024-03-23T13:25:28.889Z</time>
      </trkpt>
      <trkpt lat="45.37777" lon="6.51951">
        <ele>1678.92</ele>
        <time>2024-03-23T13:25:42.702Z</time>
      </trkpt>
      <trkpt lat="45.37781" lon="6.51955">
        <ele>1679.98</ele>
        <time>2024-03-23T13:25:55.541Z</time>
      </trkpt>
      <trkpt lat="45.37784" lon="6.51966">
        <ele>1681.25</ele>
        <time>2024-03-23T13:26:12.577Z</time>
      </trkpt>
      <trkpt lat="45.37788" lon="6.51972">
        <ele>1682.57</ele>
        <time>2024-03-23T13:26:28.480Z</time>
      </trkpt>
      <trkpt lat="45.37787" lon="6.5197">
        <ele>1683.35</ele>
        <time>2024-03-23T13:26:39.547Z</time>
      </trkpt>
      <trkpt lat="45.37786" lon="6.51971">
        <ele>1684.59</ele>
        <time>2024-03-23T13:26:47.389Z</time>
      </trkpt>
      <trkpt lat="45.37791" lon="6.51984">
        <ele>1685.6</ele>
        <time>2024-03-23T13:27:04.870Z</time>
      </trkpt>
      <trkpt lat="45.37792" lon="6.51995">
        <ele>1686.52</ele>
        <time>2024-03-23T13:27:18.959Z</time>
      </trkpt>
      <trkpt lat="45.37792" lon="6.52003">
        <ele>1687.64</ele>
        <time>2024-03-23T13:27:32.731Z</time>
      </trkpt>
      <trkpt lat="45.37794" lon="6.52012">
        <ele>1688.75</ele>
        <time>2024-03-23T13:27:47.104Z</time>
      </trkpt>
      <trkpt lat="45.378" lon="6.52018">
        <ele>1689.79</ele>
        <time>2024-03-23T13:28:01.554Z</time>
      </trkpt>
      <trkpt lat="45.37802" lon="6.52024">
        <ele>1690.45</ele>
        <time>2024-03-23T13:28:10.735Z</time>
      </trkpt>
      <trkpt lat="45.37804" lon="6.52032">
        <ele>1691.53</ele>
        <time>2024-03-23T13:28:24.355Z</time>
      </trkpt>
      <trkpt lat="45.37806" lon="6.52038">
        <ele>1692.89</ele>
        <time>2024-03-23T13:28:40.987Z</time>
      </trkpt>
      <trkpt lat="45.3781" lon="6.52045">
        <ele>1694.38</ele>
        <time>2024-03-23T13:28:58.897Z</time>
      </trkpt>
      <trkpt lat="45.37816" lon="6.52053">
        <ele>1696.36</ele>
        <time>2024-03-23T13:29:22.676Z</time>
      </trkpt>
      <trkpt lat="45.37824" lon="6.52063">
        <ele>1698.8</ele>
        <time>2024-03-23T13:29:52.052Z</time>
      </trkpt>
      <trkpt lat="45.37829" lon="6.52073">
        <ele>1700.89</ele>
        <time>2024-03-23T13:30:17.149Z</time>
      </trkpt>
      <trkpt lat="45.37833" lon="6.52082">
        <ele>1702.6</ele>
        <time>2024-03-23T13:30:37.741Z</time>
      </trkpt>
      <trkpt lat="45.37839" lon="6.52091">
        <ele>1704.15</ele>
        <time>2024-03-23T13:30:57.399Z</time>
      </trkpt>
      <trkpt lat="45.37844" lon="6.52094">
        <ele>1705.69</ele>
        <time>2024-03-23T13:31:16.132Z</time>
      </trkpt>
      <trkpt lat="45.37849" lon="6.52101">
        <ele>1707.2</ele>
        <time>2024-03-23T13:31:34.438Z</time>
      </trkpt>
      <trkpt lat="45.37852" lon="6.52107">
        <ele>1708.69</ele>
        <time>2024-03-23T13:31:52.614Z</time>
      </trkpt>
      <trkpt lat="45.37851" lon="6.52109">
        <ele>1709.85</ele>
        <time>2024-03-23T13:32:03.680Z</time>
      </trkpt>
      <trkpt lat="45.37853" lon="6.52118">
        <ele>1711.19</ele>
        <time>2024-03-23T13:32:20.108Z</time>
      </trkpt>
      <trkpt lat="45.37857" lon="6.52127">
        <ele>1712.83</ele>
        <time>2024-03-23T13:32:39.943Z</time>
      </trkpt>
      <trkpt lat="45.37864" lon="6.52133">
        <ele>1714.21</ele>
        <time>2024-03-23T13:32:57.754Z</time>
      </trkpt>
      <trkpt lat="45.37867" lon="6.52142">
        <ele>1716.01</ele>
        <time>2024-03-23T13:33:19.396Z</time>
      </trkpt>
      <trkpt lat="45.37869" lon="6.52151">
        <ele>1717.84</ele>
        <time>2024-03-23T13:33:41.556Z</time>
      </trkpt>
      <trkpt lat="45.3787" lon="6.5216">
        <ele>1719.44</ele>
        <time>2024-03-23T13:34:00.771Z</time>
      </trkpt>
      <trkpt lat="45.37874" lon="6.52166">
        <ele>1720.83</ele>
        <time>2024-03-23T13:34:17.467Z</time>
      </trkpt>
      <trkpt lat="45.37876" lon="6.52174">
        <ele>1722.76</ele>
        <time>2024-03-23T13:34:41.776Z</time>
      </trkpt>
      <trkpt lat="45.3788" lon="6.5218">
        <ele>1724.48</ele>
        <time>2024-03-23T13:35:02.883Z</time>
      </trkpt>
      <trkpt lat="45.37882" lon="6.52191">
        <ele>1726.44</ele>
        <time>2024-03-23T13:35:26.417Z</time>
      </trkpt>
      <trkpt lat="45.37883" lon="6.52198">
        <ele>1727.95</ele>
        <time>2024-03-23T13:35:45.023Z</time>
      </trkpt>
      <trkpt lat="45.37885" lon="6.52203">
        <ele>1729.48</ele>
        <time>2024-03-23T13:36:05.623Z</time>
      </trkpt>
      <trkpt lat="45.37884" lon="6.52204">
        <ele>1738.68</ele>
        <time>2024-03-23T13:36:13.466Z</time>
      </trkpt>
      <trkpt lat="45.37882" lon="6.52206">
        <ele>1738.61</ele>
        <time>2024-03-23T13:36:16.205Z</time>
      </trkpt>
      <trkpt lat="45.37883" lon="6.52219">
        <ele>1738.49</ele>
        <time>2024-03-23T13:36:26.995Z</time>
      </trkpt>
      <trkpt lat="45.37883" lon="6.52222">
        <ele>1739.4</ele>
        <time>2024-03-23T13:36:40.013Z</time>
      </trkpt>
      <trkpt lat="45.37883" lon="6.5222">
        <ele>1740.42</ele>
        <time>2024-03-23T13:36:49.028Z</time>
      </trkpt>
      <trkpt lat="45.37883" lon="6.52219">
        <ele>1743.74</ele>
        <time>2024-03-23T13:36:53.536Z</time>
      </trkpt>
      <trkpt lat="45.37884" lon="6.5222">
        <ele>1747.18</ele>
        <time>2024-03-23T13:37:01.378Z</time>
      </trkpt>
      <trkpt lat="45.37884" lon="6.52224">
        <ele>1751.4</ele>
        <time>2024-03-23T13:37:19.409Z</time>
      </trkpt>
      <trkpt lat="45.37882" lon="6.52221">
        <ele>1752.36</ele>
        <time>2024-03-23T13:37:31.591Z</time>
      </trkpt>
      <trkpt lat="45.37882" lon="6.52219">
        <ele>1752.5</ele>
        <time>2024-03-23T13:37:33.972Z</time>
      </trkpt>
      <trkpt lat="45.37885" lon="6.52217">
        <ele>1752.51</ele>
        <time>2024-03-23T13:37:38.059Z</time>
      </trkpt>
      <trkpt lat="45.37886" lon="6.52216">
        <ele>1752.23</ele>
        <time>2024-03-23T13:37:39.366Z</time>
      </trkpt>
      <trkpt lat="45.37885" lon="6.52216">
        <ele>1751.74</ele>
        <time>2024-03-23T13:37:40.436Z</time>
      </trkpt>
      <trkpt lat="45.37883" lon="6.52216">
        <ele>1750.97</ele>
        <time>2024-03-23T13:37:42.575Z</time>
      </trkpt>
      <trkpt lat="45.37882" lon="6.5223">
        <ele>1750.07</ele>
        <time>2024-03-23T13:37:53.147Z</time>
      </trkpt>
      <trkpt lat="45.37882" lon="6.52233">
        <ele>1749.5</ele>
        <time>2024-03-23T13:37:55.401Z</time>
      </trkpt>
      <trkpt lat="45.37884" lon="6.52247">
        <ele>1749.08</ele>
        <time>2024-03-23T13:38:06.220Z</time>
      </trkpt>
      <trkpt lat="45.3789" lon="6.52255">
        <ele>1748.85</ele>
        <time>2024-03-23T13:38:15.452Z</time>
      </trkpt>
      <trkpt lat="45.37896" lon="6.52263">
        <ele>1759.42</ele>
        <time>2024-03-23T13:39:08.206Z</time>
      </trkpt>
      <trkpt lat="45.37904" lon="6.52269">
        <ele>1772.94</ele>
        <time>2024-03-23T13:40:06.233Z</time>
      </trkpt>
      <trkpt lat="45.37906" lon="6.52273">
        <ele>1772.88</ele>
        <time>2024-03-23T13:40:10.231Z</time>
      </trkpt>
      <trkpt lat="45.37913" lon="6.52281">
        <ele>1771.14</ele>
        <time>2024-03-23T13:40:19.832Z</time>
      </trkpt>
      <trkpt lat="45.37917" lon="6.52293">
        <ele>1769.41</ele>
        <time>2024-03-23T13:40:29.811Z</time>
      </trkpt>
      <trkpt lat="45.37915" lon="6.52295">
        <ele>1767.88</ele>
        <time>2024-03-23T13:40:32.425Z</time>
      </trkpt>
      <trkpt lat="45.37917" lon="6.52308">
        <ele>1766.26</ele>
        <time>2024-03-23T13:40:42.423Z</time>
      </trkpt>
      <trkpt lat="45.37917" lon="6.5232">
        <ele>1764.96</ele>
        <time>2024-03-23T13:40:51.438Z</time>
      </trkpt>
      <trkpt lat="45.37919" lon="6.52331">
        <ele>1763.62</ele>
        <time>2024-03-23T13:40:59.974Z</time>
      </trkpt>
      <trkpt lat="45.37918" lon="6.52334">
        <ele>1762.39</ele>
        <time>2024-03-23T13:41:02.469Z</time>
      </trkpt>
      <trkpt lat="45.3792" lon="6.52344">
        <ele>1760.99</ele>
        <time>2024-03-23T13:41:10.280Z</time>
      </trkpt>
      <trkpt lat="45.37916" lon="6.52367">
        <ele>1760.27</ele>
        <time>2024-03-23T13:41:28.150Z</time>
      </trkpt>
      <trkpt lat="45.37911" lon="6.52382">
        <ele>1760.14</ele>
        <time>2024-03-23T13:41:41.928Z</time>
      </trkpt>
      <trkpt lat="45.37904" lon="6.52388">
        <ele>1760.28</ele>
        <time>2024-03-23T13:41:52.462Z</time>
      </trkpt>
      <trkpt lat="45.37894" lon="6.52383">
        <ele>1760.82</ele>
        <time>2024-03-23T13:42:07.695Z</time>
      </trkpt>
      <trkpt lat="45.37892" lon="6.52385">
        <ele>1761.68</ele>
        <time>2024-03-23T13:42:18.890Z</time>
      </trkpt>
      <trkpt lat="45.37884" lon="6.52384">
        <ele>1762.79</ele>
        <time>2024-03-23T13:42:34.508Z</time>
      </trkpt>
      <trkpt lat="45.3788" lon="6.52388">
        <ele>1763.79</ele>
        <time>2024-03-23T13:42:46.737Z</time>
      </trkpt>
      <trkpt lat="45.37881" lon="6.524">
        <ele>1770.35</ele>
        <time>2024-03-23T13:43:41.208Z</time>
      </trkpt>
      <trkpt lat="45.37881" lon="6.52414">
        <ele>1772.78</ele>
        <time>2024-03-23T13:44:10.387Z</time>
      </trkpt>
      <trkpt lat="45.37879" lon="6.52424">
        <ele>1772.27</ele>
        <time>2024-03-23T13:44:18.198Z</time>
      </trkpt>
      <trkpt lat="45.3787" lon="6.52433">
        <ele>1777.67</ele>
        <time>2024-03-23T13:45:28.778Z</time>
      </trkpt>
      <trkpt lat="45.37858" lon="6.52436">
        <ele>1776.5</ele>
        <time>2024-03-23T13:45:41.809Z</time>
      </trkpt>
      <trkpt lat="45.37851" lon="6.52441">
        <ele>1775.18</ele>
        <time>2024-03-23T13:45:50.186Z</time>
      </trkpt>
      <trkpt lat="45.37843" lon="6.52438">
        <ele>1774.38</ele>
        <time>2024-03-23T13:45:59.034Z</time>
      </trkpt>
      <trkpt lat="45.37837" lon="6.52429">
        <ele>1773.52</ele>
        <time>2024-03-23T13:46:08.356Z</time>
      </trkpt>
      <trkpt lat="45.37832" lon="6.52422">
        <ele>1773.21</ele>
        <time>2024-03-23T13:46:15.865Z</time>
      </trkpt>
      <trkpt lat="45.37822" lon="6.52425">
        <ele>1772.94</ele>
        <time>2024-03-23T13:46:27.396Z</time>
      </trkpt>
      <trkpt lat="45.37816" lon="6.52425">
        <ele>1773.07</ele>
        <time>2024-03-23T13:46:35.243Z</time>
      </trkpt>
      <trkpt lat="45.37811" lon="6.52424">
        <ele>1772.93</ele>
        <time>2024-03-23T13:46:40.918Z</time>
      </trkpt>
      <trkpt lat="45.37808" lon="6.5242">
        <ele>1773.22</ele>
        <time>2024-03-23T13:46:47.223Z</time>
      </trkpt>
      <trkpt lat="45.37801" lon="6.52419">
        <ele>1774.07</ele>
        <time>2024-03-23T13:47:00.070Z</time>
      </trkpt>
      <trkpt lat="45.37793" lon="6.52423">
        <ele>1774.99</ele>
        <time>2024-03-23T13:47:14.892Z</time>
      </trkpt>
      <trkpt lat="45.37788" lon="6.52429">
        <ele>1775.82</ele>
        <time>2024-03-23T13:47:27.098Z</time>
      </trkpt>
      <trkpt lat="45.37784" lon="6.52435">
        <ele>1776.68</ele>
        <time>2024-03-23T13:47:38.812Z</time>
      </trkpt>
      <trkpt lat="45.3778" lon="6.52439">
        <ele>1777.63</ele>
        <time>2024-03-23T13:47:50.562Z</time>
      </trkpt>
      <trkpt lat="45.37776" lon="6.5244">
        <ele>1778.47</ele>
        <time>2024-03-23T13:48:00.814Z</time>
      </trkpt>
      <trkpt lat="45.37774" lon="6.5244">
        <ele>1779.27</ele>
        <time>2024-03-23T13:48:11.876Z</time>
      </trkpt>
      <trkpt lat="45.37771" lon="6.52437">
        <ele>1780.53</ele>
        <time>2024-03-23T13:48:28.114Z</time>
      </trkpt>
      <trkpt lat="45.37773" lon="6.52437">
        <ele>1781.61</ele>
        <time>2024-03-23T13:48:40.949Z</time>
      </trkpt>
      <trkpt lat="45.37774" lon="6.52435">
        <ele>1782.63</ele>
        <time>2024-03-23T13:48:52.015Z</time>
      </trkpt>
      <trkpt lat="45.37775" lon="6.52434">
        <ele>1783.86</ele>
        <time>2024-03-23T13:48:59.858Z</time>
      </trkpt>
      <trkpt lat="45.37776" lon="6.52431">
        <ele>1784.92</ele>
        <time>2024-03-23T13:49:14.826Z</time>
      </trkpt>
      <trkpt lat="45.37774" lon="6.52432">
        <ele>1786.01</ele>
        <time>2024-03-23T13:49:28.429Z</time>
      </trkpt>
      <trkpt lat="45.37771" lon="6.52439">
        <ele>1793.55</ele>
        <time>2024-03-23T13:50:05.393Z</time>
      </trkpt>
      <trkpt lat="45.37758" lon="6.52442">
        <ele>1796.11</ele>
        <time>2024-03-23T13:50:37.054Z</time>
      </trkpt>
      <trkpt lat="45.37746" lon="6.52439">
        <ele>1796.2</ele>
        <time>2024-03-23T13:50:52.290Z</time>
      </trkpt>
      <trkpt lat="45.37737" lon="6.52442">
        <ele>1796.12</ele>
        <time>2024-03-23T13:51:03.294Z</time>
      </trkpt>
      <trkpt lat="45.37729" lon="6.52446">
        <ele>1796.08</ele>
        <time>2024-03-23T13:51:13.509Z</time>
      </trkpt>
      <trkpt lat="45.3772" lon="6.52452">
        <ele>1794.55</ele>
        <time>2024-03-23T13:51:24.138Z</time>
      </trkpt>
      <trkpt lat="45.37715" lon="6.52461">
        <ele>1794.13</ele>
        <time>2024-03-23T13:51:32.759Z</time>
      </trkpt>
      <trkpt lat="45.37707" lon="6.52469">
        <ele>1794.36</ele>
        <time>2024-03-23T13:51:45.620Z</time>
      </trkpt>
      <trkpt lat="45.37698" lon="6.52474">
        <ele>1794.83</ele>
        <time>2024-03-23T13:51:59.401Z</time>
      </trkpt>
      <trkpt lat="45.37691" lon="6.52479">
        <ele>1795.48</ele>
        <time>2024-03-23T13:52:11.931Z</time>
      </trkpt>
      <trkpt lat="45.37685" lon="6.52489">
        <ele>1795.98</ele>
        <time>2024-03-23T13:52:25.348Z</time>
      </trkpt>
      <trkpt lat="45.37682" lon="6.525">
        <ele>1796.3</ele>
        <time>2024-03-23T13:52:36.791Z</time>
      </trkpt>
      <trkpt lat="45.3768" lon="6.52512">
        <ele>1796.91</ele>
        <time>2024-03-23T13:52:50.074Z</time>
      </trkpt>
      <trkpt lat="45.37678" lon="6.52522">
        <ele>1797.61</ele>
        <time>2024-03-23T13:53:02.287Z</time>
      </trkpt>
      <trkpt lat="45.37678" lon="6.52533">
        <ele>1806.69</ele>
        <time>2024-03-23T13:53:51.873Z</time>
      </trkpt>
      <trkpt lat="45.37677" lon="6.52543">
        <ele>1811.4</ele>
        <time>2024-03-23T13:54:37.406Z</time>
      </trkpt>
      <trkpt lat="45.37673" lon="6.52555">
        <ele>1812.49</ele>
        <time>2024-03-23T13:54:54.203Z</time>
      </trkpt>
      <trkpt lat="45.37668" lon="6.52568">
        <ele>1812.57</ele>
        <time>2024-03-23T13:55:07.235Z</time>
      </trkpt>
      <trkpt lat="45.37665" lon="6.52579">
        <ele>1812.64</ele>
        <time>2024-03-23T13:55:17.635Z</time>
      </trkpt>
      <trkpt lat="45.37661" lon="6.52587">
        <ele>1812.49</ele>
        <time>2024-03-23T13:55:25.527Z</time>
      </trkpt>
      <trkpt lat="45.37668" lon="6.52589">
        <ele>1811.2</ele>
        <time>2024-03-23T13:55:33.164Z</time>
      </trkpt>
      <trkpt lat="45.37674" lon="6.52592">
        <ele>1811.34</ele>
        <time>2024-03-23T13:55:41.490Z</time>
      </trkpt>
      <trkpt lat="45.37678" lon="6.52602">
        <ele>1811.8</ele>
        <time>2024-03-23T13:55:53.337Z</time>
      </trkpt>
      <trkpt lat="45.37672" lon="6.526">
        <ele>1812.36</ele>
        <time>2024-03-23T13:56:03.467Z</time>
      </trkpt>
      <trkpt lat="45.37674" lon="6.52598">
        <ele>1812.89</ele>
        <time>2024-03-23T13:56:09.886Z</time>
      </trkpt>
      <trkpt lat="45.37675" lon="6.52599">
        <ele>1813.34</ele>
        <time>2024-03-23T13:56:15.866Z</time>
      </trkpt>
      <trkpt lat="45.37676" lon="6.526">
        <ele>1813.85</ele>
        <time>2024-03-23T13:56:23.058Z</time>
      </trkpt>
      <trkpt lat="45.37679" lon="6.526">
        <ele>1819.55</ele>
        <time>2024-03-23T13:56:42.310Z</time>
      </trkpt>
      <trkpt lat="45.37688" lon="6.52605">
        <ele>1820.86</ele>
        <time>2024-03-23T13:57:00.920Z</time>
      </trkpt>
      <trkpt lat="45.37692" lon="6.52612">
        <ele>1820.88</ele>
        <time>2024-03-23T13:57:08.743Z</time>
      </trkpt>
      <trkpt lat="45.377" lon="6.52614">
        <ele>1820.76</ele>
        <time>2024-03-23T13:57:18.234Z</time>
      </trkpt>
      <trkpt lat="45.377" lon="6.52615">
        <ele>1820.64</ele>
        <time>2024-03-23T13:57:18.986Z</time>
      </trkpt>
      <trkpt lat="45.37704" lon="6.52627">
        <ele>1820.7</ele>
        <time>2024-03-23T13:57:30.619Z</time>
      </trkpt>
      <trkpt lat="45.37704" lon="6.52636">
        <ele>1820.72</ele>
        <time>2024-03-23T13:57:38.423Z</time>
      </trkpt>
      <trkpt lat="45.37707" lon="6.52642">
        <ele>1820.78</ele>
        <time>2024-03-23T13:57:44.978Z</time>
      </trkpt>
      <trkpt lat="45.37709" lon="6.5265">
        <ele>1821.1</ele>
        <time>2024-03-23T13:57:53.627Z</time>
      </trkpt>
      <trkpt lat="45.37709" lon="6.52658">
        <ele>1821.55</ele>
        <time>2024-03-23T13:58:02.529Z</time>
      </trkpt>
      <trkpt lat="45.37706" lon="6.52667">
        <ele>1822</ele>
        <time>2024-03-23T13:58:13.040Z</time>
      </trkpt>
      <trkpt lat="45.37709" lon="6.52677">
        <ele>1822.61</ele>
        <time>2024-03-23T13:58:25.131Z</time>
      </trkpt>
      <trkpt lat="45.37713" lon="6.52684">
        <ele>1823.38</ele>
        <time>2024-03-23T13:58:36.734Z</time>
      </trkpt>
      <trkpt lat="45.37714" lon="6.5269">
        <ele>1829.3</ele>
        <time>2024-03-23T13:59:04.531Z</time>
      </trkpt>
      <trkpt lat="45.37713" lon="6.52696">
        <ele>1835.83</ele>
        <time>2024-03-23T13:59:32.329Z</time>
      </trkpt>
      <trkpt lat="45.37714" lon="6.52698">
        <ele>1841.31</ele>
        <time>2024-03-23T13:59:43.395Z</time>
      </trkpt>
      <trkpt lat="45.37713" lon="6.52701">
        <ele>1841.84</ele>
        <time>2024-03-23T13:59:49.780Z</time>
      </trkpt>
      <trkpt lat="45.37713" lon="6.527">
        <ele>1841.95</ele>
        <time>2024-03-23T13:59:51.242Z</time>
      </trkpt>
      <trkpt lat="45.37713" lon="6.52698">
        <ele>1843.14</ele>
        <time>2024-03-23T14:00:00.258Z</time>
      </trkpt>
      <trkpt lat="45.37712" lon="6.52697">
        <ele>1851.66</ele>
        <time>2024-03-23T14:00:08.100Z</time>
      </trkpt>
      <trkpt lat="45.37706" lon="6.52693">
        <ele>1851.78</ele>
        <time>2024-03-23T14:00:16.668Z</time>
      </trkpt>
      <trkpt lat="45.37697" lon="6.52694">
        <ele>1850.6</ele>
        <time>2024-03-23T14:00:26.324Z</time>
      </trkpt>
      <trkpt lat="45.37686" lon="6.52695">
        <ele>1848.84</ele>
        <time>2024-03-23T14:00:38.113Z</time>
      </trkpt>
      <trkpt lat="45.37678" lon="6.52696">
        <ele>1847.32</ele>
        <time>2024-03-23T14:00:46.702Z</time>
      </trkpt>
      <trkpt lat="45.37666" lon="6.52698">
        <ele>1846.02</ele>
        <time>2024-03-23T14:00:59.624Z</time>
      </trkpt>
      <trkpt lat="45.37657" lon="6.52695">
        <ele>1844.85</ele>
        <time>2024-03-23T14:01:09.511Z</time>
      </trkpt>
      <trkpt lat="45.37647" lon="6.52693">
        <ele>1843.5</ele>
        <time>2024-03-23T14:01:20.311Z</time>
      </trkpt>
      <trkpt lat="45.37637" lon="6.52693">
        <ele>1842.35</ele>
        <time>2024-03-23T14:01:31.007Z</time>
      </trkpt>
      <trkpt lat="45.37627" lon="6.52689">
        <ele>1841.2</ele>
        <time>2024-03-23T14:01:42.116Z</time>
      </trkpt>
      <trkpt lat="45.37617" lon="6.52685">
        <ele>1839.96</ele>
        <time>2024-03-23T14:01:53.226Z</time>
      </trkpt>
      <trkpt lat="45.37612" lon="6.52692">
        <ele>1838.39</ele>
        <time>2024-03-23T14:02:00.727Z</time>
      </trkpt>
      <trkpt lat="45.37604" lon="6.52692">
        <ele>1841.93</ele>
        <time>2024-03-23T14:02:51.819Z</time>
      </trkpt>
      <trkpt lat="45.37598" lon="6.52692">
        <ele>1845.16</ele>
        <time>2024-03-23T14:03:30.323Z</time>
      </trkpt>
      <trkpt lat="45.37591" lon="6.5269">
        <ele>1844.49</ele>
        <time>2024-03-23T14:03:37.959Z</time>
      </trkpt>
      <trkpt lat="45.37584" lon="6.52687">
        <ele>1849.79</ele>
        <time>2024-03-23T14:04:24.872Z</time>
      </trkpt>
      <trkpt lat="45.37576" lon="6.52679">
        <ele>1849.82</ele>
        <time>2024-03-23T14:04:36.936Z</time>
      </trkpt>
      <trkpt lat="45.37571" lon="6.52674">
        <ele>1859.3</ele>
        <time>2024-03-23T14:05:16.148Z</time>
      </trkpt>
      <trkpt lat="45.3756" lon="6.52671">
        <ele>1860.81</ele>
        <time>2024-03-23T14:05:37.661Z</time>
      </trkpt>
      <trkpt lat="45.37561" lon="6.52673">
        <ele>1856.85</ele>
        <time>2024-03-23T14:05:39.505Z</time>
      </trkpt>
      <trkpt lat="45.37555" lon="6.52676">
        <ele>1858.89</ele>
        <time>2024-03-23T14:06:05.123Z</time>
      </trkpt>
      <trkpt lat="45.37546" lon="6.5268">
        <ele>1856.06</ele>
        <time>2024-03-23T14:06:15.207Z</time>
      </trkpt>
      <trkpt lat="45.37542" lon="6.52685">
        <ele>1853.51</ele>
        <time>2024-03-23T14:06:20.901Z</time>
      </trkpt>
      <trkpt lat="45.37541" lon="6.52686">
        <ele>1850.98</ele>
        <time>2024-03-23T14:06:22.208Z</time>
      </trkpt>
      <trkpt lat="45.37539" lon="6.52679">
        <ele>1848.11</ele>
        <time>2024-03-23T14:06:27.885Z</time>
      </trkpt>
      <trkpt lat="45.37526" lon="6.52687">
        <ele>1844.93</ele>
        <time>2024-03-23T14:06:43.033Z</time>
      </trkpt>
      <trkpt lat="45.37514" lon="6.52695">
        <ele>1842.88</ele>
        <time>2024-03-23T14:06:57.205Z</time>
      </trkpt>
      <trkpt lat="45.37501" lon="6.52701">
        <ele>1840.71</ele>
        <time>2024-03-23T14:07:11.822Z</time>
      </trkpt>
      <trkpt lat="45.37491" lon="6.5271">
        <ele>1838.7</ele>
        <time>2024-03-23T14:07:24.476Z</time>
      </trkpt>
      <trkpt lat="45.37481" lon="6.52713">
        <ele>1837.41</ele>
        <time>2024-03-23T14:07:35.406Z</time>
      </trkpt>
      <trkpt lat="45.37472" lon="6.52713">
        <ele>1836.4</ele>
        <time>2024-03-23T14:07:45.032Z</time>
      </trkpt>
      <trkpt lat="45.37465" lon="6.52723">
        <ele>1835.83</ele>
        <time>2024-03-23T14:07:55.639Z</time>
      </trkpt>
      <trkpt lat="45.37456" lon="6.52722">
        <ele>1835.31</ele>
        <time>2024-03-23T14:08:05.294Z</time>
      </trkpt>
      <trkpt lat="45.37451" lon="6.52717">
        <ele>1834.62</ele>
        <time>2024-03-23T14:08:11.830Z</time>
      </trkpt>
      <trkpt lat="45.37446" lon="6.52723">
        <ele>1842.3</ele>
        <time>2024-03-23T14:08:53.796Z</time>
      </trkpt>
      <trkpt lat="45.37441" lon="6.52735">
        <ele>1842.98</ele>
        <time>2024-03-23T14:09:08.770Z</time>
      </trkpt>
      <trkpt lat="45.37436" lon="6.52743">
        <ele>1850.84</ele>
        <time>2024-03-23T14:09:57.042Z</time>
      </trkpt>
      <trkpt lat="45.37432" lon="6.52743">
        <ele>1849.03</ele>
        <time>2024-03-23T14:10:01.320Z</time>
      </trkpt>
      <trkpt lat="45.37432" lon="6.52741">
        <ele>1846.29</ele>
        <time>2024-03-23T14:10:02.823Z</time>
      </trkpt>
      <trkpt lat="45.3743" lon="6.52745">
        <ele>1843.74</ele>
        <time>2024-03-23T14:10:06.512Z</time>
      </trkpt>
      <trkpt lat="45.37426" lon="6.52762">
        <ele>1840.81</ele>
        <time>2024-03-23T14:10:19.982Z</time>
      </trkpt>
      <trkpt lat="45.37428" lon="6.52761">
        <ele>1839.12</ele>
        <time>2024-03-23T14:10:22.249Z</time>
      </trkpt>
      <trkpt lat="45.37429" lon="6.52759">
        <ele>1837.81</ele>
        <time>2024-03-23T14:10:24.093Z</time>
      </trkpt>
      <trkpt lat="45.37429" lon="6.52758">
        <ele>1841.04</ele>
        <time>2024-03-23T14:10:28.601Z</time>
      </trkpt>
      <trkpt lat="45.37427" lon="6.52763">
        <ele>1839.71</ele>
        <time>2024-03-23T14:10:32.924Z</time>
      </trkpt>
      <trkpt lat="45.37427" lon="6.52771">
        <ele>1837.99</ele>
        <time>2024-03-23T14:10:38.935Z</time>
      </trkpt>
      <trkpt lat="45.3742" lon="6.52772">
        <ele>1836.34</ele>
        <time>2024-03-23T14:10:46.459Z</time>
      </trkpt>
      <trkpt lat="45.37416" lon="6.52775">
        <ele>1834.98</ele>
        <time>2024-03-23T14:10:51.295Z</time>
      </trkpt>
      <trkpt lat="45.37406" lon="6.52766">
        <ele>1833.57</ele>
        <time>2024-03-23T14:11:03.949Z</time>
      </trkpt>
      <trkpt lat="45.37419" lon="6.52765">
        <ele>1832.79</ele>
        <time>2024-03-23T14:11:17.873Z</time>
      </trkpt>
      <trkpt lat="45.37411" lon="6.52759">
        <ele>1831.95</ele>
        <time>2024-03-23T14:11:27.545Z</time>
      </trkpt>
      <trkpt lat="45.37405" lon="6.52806">
        <ele>1831.17</ele>
        <time>2024-03-23T14:12:05.770Z</time>
      </trkpt>
      <trkpt lat="45.37403" lon="6.52821">
        <ele>1830.3</ele>
        <time>2024-03-23T14:12:17.241Z</time>
      </trkpt>
      <trkpt lat="45.37404" lon="6.52823">
        <ele>1828.61</ele>
        <time>2024-03-23T14:12:19.085Z</time>
      </trkpt>
      <trkpt lat="45.37404" lon="6.52829">
        <ele>1827.83</ele>
        <time>2024-03-23T14:12:23.593Z</time>
      </trkpt>
      <trkpt lat="45.37404" lon="6.52824">
        <ele>1827.28</ele>
        <time>2024-03-23T14:12:27.350Z</time>
      </trkpt>
      <trkpt lat="45.37403" lon="6.52825">
        <ele>1837.91</ele>
        <time>2024-03-23T14:12:35.193Z</time>
      </trkpt>
      <trkpt lat="45.37396" lon="6.52832">
        <ele>1838.1</ele>
        <time>2024-03-23T14:12:46.400Z</time>
      </trkpt>
      <trkpt lat="45.37389" lon="6.52842">
        <ele>1838.94</ele>
        <time>2024-03-23T14:13:02.359Z</time>
      </trkpt>
      <trkpt lat="45.37383" lon="6.52841">
        <ele>1839.7</ele>
        <time>2024-03-23T14:13:13.590Z</time>
      </trkpt>
      <trkpt lat="45.37376" lon="6.52843">
        <ele>1852.36</ele>
        <time>2024-03-23T14:13:59.408Z</time>
      </trkpt>
      <trkpt lat="45.37367" lon="6.52843">
        <ele>1874.14</ele>
        <time>2024-03-23T14:14:57.163Z</time>
      </trkpt>
      <trkpt lat="45.37358" lon="6.52842">
        <ele>1883.43</ele>
        <time>2024-03-23T14:15:55.095Z</time>
      </trkpt>
      <trkpt lat="45.37348" lon="6.52839">
        <ele>1883.65</ele>
        <time>2024-03-23T14:16:08.455Z</time>
      </trkpt>
      <trkpt lat="45.37346" lon="6.52842">
        <ele>1881.62</ele>
        <time>2024-03-23T14:16:11.562Z</time>
      </trkpt>
      <trkpt lat="45.37336" lon="6.52855">
        <ele>1877.96</ele>
        <time>2024-03-23T14:16:26.047Z</time>
      </trkpt>
      <trkpt lat="45.37334" lon="6.52866">
        <ele>1885.66</ele>
        <time>2024-03-23T14:17:17.269Z</time>
      </trkpt>
      <trkpt lat="45.37357" lon="6.52924">
        <ele>1896.77</ele>
        <time>2024-03-23T14:19:30.754Z</time>
      </trkpt>
      <trkpt lat="45.37349" lon="6.52918">
        <ele>1889.73</ele>
        <time>2024-03-23T14:19:40.425Z</time>
      </trkpt>
      <trkpt lat="45.37337" lon="6.52923">
        <ele>1883.01</ele>
        <time>2024-03-23T14:19:53.798Z</time>
      </trkpt>
      <trkpt lat="45.37332" lon="6.52927">
        <ele>1875.08</ele>
        <time>2024-03-23T14:19:59.933Z</time>
      </trkpt>
      <trkpt lat="45.37324" lon="6.52926">
        <ele>1867.97</ele>
        <time>2024-03-23T14:20:08.522Z</time>
      </trkpt>
      <trkpt lat="45.37314" lon="6.52928">
        <ele>1862.16</ele>
        <time>2024-03-23T14:20:19.322Z</time>
      </trkpt>
      <trkpt lat="45.37304" lon="6.52933">
        <ele>1856.41</ele>
        <time>2024-03-23T14:20:30.659Z</time>
      </trkpt>
      <trkpt lat="45.37293" lon="6.5293">
        <ele>1851.7</ele>
        <time>2024-03-23T14:20:42.638Z</time>
      </trkpt>
      <trkpt lat="45.3729" lon="6.52927">
        <ele>1847.05</ele>
        <time>2024-03-23T14:20:46.559Z</time>
      </trkpt>
      <trkpt lat="45.37288" lon="6.5293">
        <ele>1842.88</ele>
        <time>2024-03-23T14:20:49.666Z</time>
      </trkpt>
      <trkpt lat="45.37288" lon="6.52925">
        <ele>1839.46</ele>
        <time>2024-03-23T14:20:53.423Z</time>
      </trkpt>
      <trkpt lat="45.37292" lon="6.52922">
        <ele>1836.38</ele>
        <time>2024-03-23T14:20:58.259Z</time>
      </trkpt>
      <trkpt lat="45.37292" lon="6.52919">
        <ele>1833.59</ele>
        <time>2024-03-23T14:21:00.513Z</time>
      </trkpt>
      <trkpt lat="45.37295" lon="6.52924">
        <ele>1830.83</ele>
        <time>2024-03-23T14:21:05.453Z</time>
      </trkpt>
      <trkpt lat="45.37295" lon="6.52926">
        <ele>1828.57</ele>
        <time>2024-03-23T14:21:06.956Z</time>
      </trkpt>
      <trkpt lat="45.37295" lon="6.52924">
        <ele>1826.33</ele>
        <time>2024-03-23T14:21:08.459Z</time>
      </trkpt>
      <trkpt lat="45.37296" lon="6.52927">
        <ele>1824.5</ele>
        <time>2024-03-23T14:21:10.954Z</time>
      </trkpt>
      <trkpt lat="45.37295" lon="6.52928">
        <ele>1822.08</ele>
        <time>2024-03-23T14:21:12.261Z</time>
      </trkpt>
      <trkpt lat="45.37295" lon="6.52927">
        <ele>1818.66</ele>
        <time>2024-03-23T14:21:13.012Z</time>
      </trkpt>
      <trkpt lat="45.37296" lon="6.52928">
        <ele>1817.46</ele>
        <time>2024-03-23T14:21:14.319Z</time>
      </trkpt>
      <trkpt lat="45.37295" lon="6.5293">
        <ele>1816.29</ele>
        <time>2024-03-23T14:21:16.164Z</time>
      </trkpt>
      <trkpt lat="45.37287" lon="6.52939">
        <ele>1815.42</ele>
        <time>2024-03-23T14:21:27.070Z</time>
      </trkpt>
      <trkpt lat="45.3728" lon="6.52946">
        <ele>1814.66</ele>
        <time>2024-03-23T14:21:36.219Z</time>
      </trkpt>
      <trkpt lat="45.37275" lon="6.52959">
        <ele>1813.81</ele>
        <time>2024-03-23T14:21:47.355Z</time>
      </trkpt>
      <trkpt lat="45.37268" lon="6.52969">
        <ele>1812.47</ele>
        <time>2024-03-23T14:21:57.962Z</time>
      </trkpt>
      <trkpt lat="45.37259" lon="6.52971">
        <ele>1811.41</ele>
        <time>2024-03-23T14:22:07.704Z</time>
      </trkpt>
      <trkpt lat="45.37251" lon="6.52967">
        <ele>1810.42</ele>
        <time>2024-03-23T14:22:16.773Z</time>
      </trkpt>
      <trkpt lat="45.37243" lon="6.52966">
        <ele>1809.44</ele>
        <time>2024-03-23T14:22:25.363Z</time>
      </trkpt>
      <trkpt lat="45.37237" lon="6.52965">
        <ele>1808.7</ele>
        <time>2024-03-23T14:22:31.824Z</time>
      </trkpt>
      <trkpt lat="45.37233" lon="6.52953">
        <ele>1808.06</ele>
        <time>2024-03-23T14:22:41.804Z</time>
      </trkpt>
      <trkpt lat="45.37237" lon="6.52944">
        <ele>1807.65</ele>
        <time>2024-03-23T14:22:49.806Z</time>
      </trkpt>
      <trkpt lat="45.37224" lon="6.5294">
        <ele>1801.48</ele>
        <time>2024-03-23T14:23:04.031Z</time>
      </trkpt>
      <trkpt lat="45.37225" lon="6.52939">
        <ele>1801.88</ele>
        <time>2024-03-23T14:23:09.089Z</time>
      </trkpt>
      <trkpt lat="45.37228" lon="6.52936">
        <ele>1802.21</ele>
        <time>2024-03-23T14:23:15.098Z</time>
      </trkpt>
      <trkpt lat="45.37233" lon="6.52918">
        <ele>1802.45</ele>
        <time>2024-03-23T14:23:32.658Z</time>
      </trkpt>
      <trkpt lat="45.37217" lon="6.52925">
        <ele>1802.67</ele>
        <time>2024-03-23T14:23:53.970Z</time>
      </trkpt>
      <trkpt lat="45.37208" lon="6.52935">
        <ele>1802.91</ele>
        <time>2024-03-23T14:24:08.871Z</time>
      </trkpt>
      <trkpt lat="45.37199" lon="6.52944">
        <ele>1803.13</ele>
        <time>2024-03-23T14:24:23.180Z</time>
      </trkpt>
      <trkpt lat="45.3719" lon="6.5294">
        <ele>1803.33</ele>
        <time>2024-03-23T14:24:35.494Z</time>
      </trkpt>
      <trkpt lat="45.37192" lon="6.5294">
        <ele>1803.49</ele>
        <time>2024-03-23T14:24:38.661Z</time>
      </trkpt>
      <trkpt lat="45.37192" lon="6.52942">
        <ele>1803.76</ele>
        <time>2024-03-23T14:24:42.010Z</time>
      </trkpt>
      <trkpt lat="45.37189" lon="6.52945">
        <ele>1803.91</ele>
        <time>2024-03-23T14:24:47.109Z</time>
      </trkpt>
      <trkpt lat="45.37189" lon="6.52934">
        <ele>1804</ele>
        <time>2024-03-23T14:24:56.902Z</time>
      </trkpt>
      <trkpt lat="45.37192" lon="6.52933">
        <ele>1804.1</ele>
        <time>2024-03-23T14:25:01.073Z</time>
      </trkpt>
      <trkpt lat="45.37182" lon="6.52928">
        <ele>1804.17</ele>
        <time>2024-03-23T14:25:14.296Z</time>
      </trkpt>
      <trkpt lat="45.37169" lon="6.52923">
        <ele>1804.25</ele>
        <time>2024-03-23T14:25:31.061Z</time>
      </trkpt>
      <trkpt lat="45.37162" lon="6.52916">
        <ele>1804.31</ele>
        <time>2024-03-23T14:25:41.747Z</time>
      </trkpt>
      <trkpt lat="45.37152" lon="6.52912">
        <ele>1804.36</ele>
        <time>2024-03-23T14:25:54.634Z</time>
      </trkpt>
      <trkpt lat="45.37144" lon="6.52917">
        <ele>1804.42</ele>
        <time>2024-03-23T14:26:05.543Z</time>
      </trkpt>
      <trkpt lat="45.37141" lon="6.52916">
        <ele>1804.48</ele>
        <time>2024-03-23T14:26:09.545Z</time>
      </trkpt>
      <trkpt lat="45.37137" lon="6.52912">
        <ele>1804.53</ele>
        <time>2024-03-23T14:26:15.712Z</time>
      </trkpt>
      <trkpt lat="45.37138" lon="6.52911">
        <ele>1804.58</ele>
        <time>2024-03-23T14:26:17.412Z</time>
      </trkpt>
      <trkpt lat="45.37136" lon="6.52914">
        <ele>1804.62</ele>
        <time>2024-03-23T14:26:21.119Z</time>
      </trkpt>
      <trkpt lat="45.3714" lon="6.52912">
        <ele>1804.66</ele>
        <time>2024-03-23T14:26:26.455Z</time>
      </trkpt>
      <trkpt lat="45.3714" lon="6.52916">
        <ele>1804.69</ele>
        <time>2024-03-23T14:26:30.005Z</time>
      </trkpt>
      <trkpt lat="45.37141" lon="6.52915">
        <ele>1804.72</ele>
        <time>2024-03-23T14:26:31.618Z</time>
      </trkpt>
      <trkpt lat="45.3714" lon="6.52915">
        <ele>1804.85</ele>
        <time>2024-03-23T14:26:33.506Z</time>
      </trkpt>
      <trkpt lat="45.3714" lon="6.52916">
        <ele>1804.9</ele>
        <time>2024-03-23T14:26:34.585Z</time>
      </trkpt>
      <trkpt lat="45.37138" lon="6.52916">
        <ele>1804.95</ele>
        <time>2024-03-23T14:26:37.229Z</time>
      </trkpt>
      <trkpt lat="45.37139" lon="6.52916">
        <ele>1804.96</ele>
        <time>2024-03-23T14:26:38.490Z</time>
      </trkpt>
      <trkpt lat="45.37138" lon="6.52915">
        <ele>1804.97</ele>
        <time>2024-03-23T14:26:40.022Z</time>
      </trkpt>
      <trkpt lat="45.3714" lon="6.52912">
        <ele>1804.91</ele>
        <time>2024-03-23T14:26:43.357Z</time>
      </trkpt>
      <trkpt lat="45.37139" lon="6.52911">
        <ele>1799.52</ele>
        <time>2024-03-23T14:26:44.664Z</time>
      </trkpt>
      <trkpt lat="45.37138" lon="6.52914">
        <ele>1800.09</ele>
        <time>2024-03-23T14:26:51.509Z</time>
      </trkpt>
      <trkpt lat="45.37139" lon="6.52915">
        <ele>1802.37</ele>
        <time>2024-03-23T14:26:59.351Z</time>
      </trkpt>
      <trkpt lat="45.3714" lon="6.52916">
        <ele>1803.12</ele>
        <time>2024-03-23T14:27:07.194Z</time>
      </trkpt>
      <trkpt lat="45.37139" lon="6.52915">
        <ele>1803.37</ele>
        <time>2024-03-23T14:27:10.251Z</time>
      </trkpt>
      <trkpt lat="45.37137" lon="6.52916">
        <ele>1803.53</ele>
        <time>2024-03-23T14:27:13.557Z</time>
      </trkpt>
      <trkpt lat="45.37138" lon="6.52915">
        <ele>1803.72</ele>
        <time>2024-03-23T14:27:16.090Z</time>
      </trkpt>
      <trkpt lat="45.37138" lon="6.52922">
        <ele>1803.9</ele>
        <time>2024-03-23T14:27:22.836Z</time>
      </trkpt>
      <trkpt lat="45.37132" lon="6.52925">
        <ele>1804.15</ele>
        <time>2024-03-23T14:27:31.635Z</time>
      </trkpt>
      <trkpt lat="45.37123" lon="6.52922">
        <ele>1804.28</ele>
        <time>2024-03-23T14:27:43.438Z</time>
      </trkpt>
      <trkpt lat="45.37111" lon="6.52925">
        <ele>1804.44</ele>
        <time>2024-03-23T14:27:58.951Z</time>
      </trkpt>
      <trkpt lat="45.37102" lon="6.52932">
        <ele>1804.77</ele>
        <time>2024-03-23T14:28:12.820Z</time>
      </trkpt>
      <trkpt lat="45.37098" lon="6.52934">
        <ele>1804.91</ele>
        <time>2024-03-23T14:28:18.569Z</time>
      </trkpt>
      <trkpt lat="45.37098" lon="6.52928">
        <ele>1804.92</ele>
        <time>2024-03-23T14:28:23.759Z</time>
      </trkpt>
      <trkpt lat="45.37095" lon="6.52909">
        <ele>1804.92</ele>
        <time>2024-03-23T14:28:40.482Z</time>
      </trkpt>
      <trkpt lat="45.37096" lon="6.52901">
        <ele>1804.89</ele>
        <time>2024-03-23T14:28:47.348Z</time>
      </trkpt>
      <trkpt lat="45.37088" lon="6.52902">
        <ele>1804.89</ele>
        <time>2024-03-23T14:28:57.164Z</time>
      </trkpt>
      <trkpt lat="45.37084" lon="6.52889">
        <ele>1804.9</ele>
        <time>2024-03-23T14:29:09.389Z</time>
      </trkpt>
      <trkpt lat="45.37077" lon="6.52889">
        <ele>1804.91</ele>
        <time>2024-03-23T14:29:17.983Z</time>
      </trkpt>
      <trkpt lat="45.3707" lon="6.5288">
        <ele>1804.9</ele>
        <time>2024-03-23T14:29:29.476Z</time>
      </trkpt>
      <trkpt lat="45.37065" lon="6.52866">
        <ele>1804.73</ele>
        <time>2024-03-23T14:29:42.343Z</time>
      </trkpt>
      <trkpt lat="45.37064" lon="6.52866">
        <ele>1804.72</ele>
        <time>2024-03-23T14:29:43.529Z</time>
      </trkpt>
      <trkpt lat="45.37062" lon="6.5286">
        <ele>1804.76</ele>
        <time>2024-03-23T14:29:49.385Z</time>
      </trkpt>
      <trkpt lat="45.37055" lon="6.52853">
        <ele>1804.79</ele>
        <time>2024-03-23T14:29:59.955Z</time>
      </trkpt>
      <trkpt lat="45.37048" lon="6.52845">
        <ele>1804.75</ele>
        <time>2024-03-23T14:30:10.779Z</time>
      </trkpt>
      <trkpt lat="45.37038" lon="6.52839">
        <ele>1804.71</ele>
        <time>2024-03-23T14:30:23.895Z</time>
      </trkpt>
      <trkpt lat="45.37023" lon="6.52843">
        <ele>1804.75</ele>
        <time>2024-03-23T14:30:42.700Z</time>
      </trkpt>
      <trkpt lat="45.37015" lon="6.52855">
        <ele>1804.78</ele>
        <time>2024-03-23T14:30:57.020Z</time>
      </trkpt>
      <trkpt lat="45.37007" lon="6.52862">
        <ele>1804.9</ele>
        <time>2024-03-23T14:31:08.963Z</time>
      </trkpt>
      <trkpt lat="45.36996" lon="6.52871">
        <ele>1804.92</ele>
        <time>2024-03-23T14:31:24.547Z</time>
      </trkpt>
      <trkpt lat="45.36985" lon="6.52879">
        <ele>1804.91</ele>
        <time>2024-03-23T14:31:39.609Z</time>
      </trkpt>
      <trkpt lat="45.36976" lon="6.5288">
        <ele>1803.22</ele>
        <time>2024-03-23T14:31:49.264Z</time>
      </trkpt>
      <trkpt lat="45.36977" lon="6.52884">
        <ele>1801.26</ele>
        <time>2024-03-23T14:31:52.454Z</time>
      </trkpt>
      <trkpt lat="45.36977" lon="6.52882">
        <ele>1799.56</ele>
        <time>2024-03-23T14:31:53.957Z</time>
      </trkpt>
      <trkpt lat="45.36976" lon="6.52883">
        <ele>1795.26</ele>
        <time>2024-03-23T14:31:55.264Z</time>
      </trkpt>
      <trkpt lat="45.36976" lon="6.52885">
        <ele>1794.2</ele>
        <time>2024-03-23T14:31:56.767Z</time>
      </trkpt>
      <trkpt lat="45.36967" lon="6.52891">
        <ele>1793.12</ele>
        <time>2024-03-23T14:32:07.396Z</time>
      </trkpt>
      <trkpt lat="45.36957" lon="6.52901">
        <ele>1792.02</ele>
        <time>2024-03-23T14:32:20.467Z</time>
      </trkpt>
      <trkpt lat="45.36946" lon="6.52909">
        <ele>1790.91</ele>
        <time>2024-03-23T14:32:33.679Z</time>
      </trkpt>
      <trkpt lat="45.36934" lon="6.52918">
        <ele>1790.16</ele>
        <time>2024-03-23T14:32:48.186Z</time>
      </trkpt>
      <trkpt lat="45.36923" lon="6.52916">
        <ele>1789.87</ele>
        <time>2024-03-23T14:33:00.709Z</time>
      </trkpt>
      <trkpt lat="45.36924" lon="6.52918">
        <ele>1789.86</ele>
        <time>2024-03-23T14:33:02.780Z</time>
      </trkpt>
      <trkpt lat="45.36913" lon="6.52921">
        <ele>1790</ele>
        <time>2024-03-23T14:33:17.012Z</time>
      </trkpt>
      <trkpt lat="45.36903" lon="6.52923">
        <ele>1790.38</ele>
        <time>2024-03-23T14:33:30.910Z</time>
      </trkpt>
      <trkpt lat="45.36893" lon="6.52924">
        <ele>1791.04</ele>
        <time>2024-03-23T14:33:46.045Z</time>
      </trkpt>
      <trkpt lat="45.36884" lon="6.5292">
        <ele>1791.74</ele>
        <time>2024-03-23T14:34:00.689Z</time>
      </trkpt>
      <trkpt lat="45.36876" lon="6.52919">
        <ele>1792.24</ele>
        <time>2024-03-23T14:34:12.670Z</time>
      </trkpt>
      <trkpt lat="45.36868" lon="6.52912">
        <ele>1792.58</ele>
        <time>2024-03-23T14:34:25.535Z</time>
      </trkpt>
      <trkpt lat="45.36857" lon="6.52911">
        <ele>1792.57</ele>
        <time>2024-03-23T14:34:38.970Z</time>
      </trkpt>
      <trkpt lat="45.36851" lon="6.52917">
        <ele>1792.57</ele>
        <time>2024-03-23T14:34:47.933Z</time>
      </trkpt>
      <trkpt lat="45.36854" lon="6.52916">
        <ele>1792.52</ele>
        <time>2024-03-23T14:34:51.518Z</time>
      </trkpt>
      <trkpt lat="45.36853" lon="6.52918">
        <ele>1792.63</ele>
        <time>2024-03-23T14:34:54.104Z</time>
      </trkpt>
      <trkpt lat="45.36854" lon="6.52918">
        <ele>1792.78</ele>
        <time>2024-03-23T14:34:56.135Z</time>
      </trkpt>
      <trkpt lat="45.36855" lon="6.52919">
        <ele>1792.97</ele>
        <time>2024-03-23T14:34:58.668Z</time>
      </trkpt>
      <trkpt lat="45.36857" lon="6.52911">
        <ele>1793</ele>
        <time>2024-03-23T14:35:06.074Z</time>
      </trkpt>
      <trkpt lat="45.36851" lon="6.52921">
        <ele>1793.14</ele>
        <time>2024-03-23T14:35:17.912Z</time>
      </trkpt>
      <trkpt lat="45.36838" lon="6.52924">
        <ele>1793.51</ele>
        <time>2024-03-23T14:35:35.491Z</time>
      </trkpt>
      <trkpt lat="45.36831" lon="6.52925">
        <ele>1794.09</ele>
        <time>2024-03-23T14:35:46.725Z</time>
      </trkpt>
      <trkpt lat="45.36825" lon="6.52935">
        <ele>1794.41</ele>
        <time>2024-03-23T14:35:59.319Z</time>
      </trkpt>
      <trkpt lat="45.36822" lon="6.52945">
        <ele>1794.8</ele>
        <time>2024-03-23T14:36:10.301Z</time>
      </trkpt>
      <trkpt lat="45.36816" lon="6.52949">
        <ele>1795.06</ele>
        <time>2024-03-23T14:36:19.467Z</time>
      </trkpt>
      <trkpt lat="45.36811" lon="6.52953">
        <ele>1795.42</ele>
        <time>2024-03-23T14:36:28.039Z</time>
      </trkpt>
      <trkpt lat="45.36812" lon="6.52939">
        <ele>1796.08</ele>
        <time>2024-03-23T14:36:43.012Z</time>
      </trkpt>
      <trkpt lat="45.36804" lon="6.52935">
        <ele>1796.71</ele>
        <time>2024-03-23T14:36:56.183Z</time>
      </trkpt>
      <trkpt lat="45.36798" lon="6.52941">
        <ele>1797.55</ele>
        <time>2024-03-23T14:37:09.278Z</time>
      </trkpt>
      <trkpt lat="45.36793" lon="6.52937">
        <ele>1798.68</ele>
        <time>2024-03-23T14:37:23.209Z</time>
      </trkpt>
      <trkpt lat="45.36793" lon="6.52921">
        <ele>1799.3</ele>
        <time>2024-03-23T14:37:39.590Z</time>
      </trkpt>
      <trkpt lat="45.36782" lon="6.52918">
        <ele>1799.9</ele>
        <time>2024-03-23T14:37:55.826Z</time>
      </trkpt>
      <trkpt lat="45.36773" lon="6.52913">
        <ele>1800.53</ele>
        <time>2024-03-23T14:38:10.382Z</time>
      </trkpt>
      <trkpt lat="45.3676" lon="6.52919">
        <ele>1801.56</ele>
        <time>2024-03-23T14:38:31.688Z</time>
      </trkpt>
      <trkpt lat="45.36758" lon="6.52918">
        <ele>1802.82</ele>
        <time>2024-03-23T14:38:45.291Z</time>
      </trkpt>
      <trkpt lat="45.36757" lon="6.52932">
        <ele>1805.36</ele>
        <time>2024-03-23T14:39:15.829Z</time>
      </trkpt>
      <trkpt lat="45.36751" lon="6.52937">
        <ele>1806.52</ele>
        <time>2024-03-23T14:39:30.867Z</time>
      </trkpt>
      <trkpt lat="45.36751" lon="6.52935">
        <ele>1806.56</ele>
        <time>2024-03-23T14:39:32.745Z</time>
      </trkpt>
      <trkpt lat="45.36741" lon="6.52929">
        <ele>1806.59</ele>
        <time>2024-03-23T14:39:46.124Z</time>
      </trkpt>
      <trkpt lat="45.36742" lon="6.5293">
        <ele>1806.72</ele>
        <time>2024-03-23T14:39:48.244Z</time>
      </trkpt>
      <trkpt lat="45.36742" lon="6.52931">
        <ele>1806.97</ele>
        <time>2024-03-23T14:39:51.515Z</time>
      </trkpt>
      <trkpt lat="45.36739" lon="6.52933">
        <ele>1807.39</ele>
        <time>2024-03-23T14:39:57.695Z</time>
      </trkpt>
      <trkpt lat="45.3674" lon="6.52933">
        <ele>1807.84</ele>
        <time>2024-03-23T14:40:04.113Z</time>
      </trkpt>
      <trkpt lat="45.36742" lon="6.52933">
        <ele>1808.24</ele>
        <time>2024-03-23T14:40:09.027Z</time>
      </trkpt>
      <trkpt lat="45.36742" lon="6.52931">
        <ele>1808.98</ele>
        <time>2024-03-23T14:40:18.044Z</time>
      </trkpt>
      <trkpt lat="45.36741" lon="6.52928">
        <ele>1809.16</ele>
        <time>2024-03-23T14:40:21.703Z</time>
      </trkpt>
      <trkpt lat="45.36742" lon="6.52928">
        <ele>1809.23</ele>
        <time>2024-03-23T14:40:23.234Z</time>
      </trkpt>
      <trkpt lat="45.36741" lon="6.52927">
        <ele>1810.83</ele>
        <time>2024-03-23T14:40:31.077Z</time>
      </trkpt>
      <trkpt lat="45.36741" lon="6.52928">
        <ele>1810.61</ele>
        <time>2024-03-23T14:40:31.829Z</time>
      </trkpt>
      <trkpt lat="45.36742" lon="6.52927">
        <ele>1810.78</ele>
        <time>2024-03-23T14:40:34.213Z</time>
      </trkpt>
      <trkpt lat="45.36743" lon="6.52926">
        <ele>1810.93</ele>
        <time>2024-03-23T14:40:36.460Z</time>
      </trkpt>
      <trkpt lat="45.36743" lon="6.52922">
        <ele>1811.07</ele>
        <time>2024-03-23T14:40:40.484Z</time>
      </trkpt>
      <trkpt lat="45.36742" lon="6.52925">
        <ele>1811.35</ele>
        <time>2024-03-23T14:40:44.732Z</time>
      </trkpt>
      <trkpt lat="45.36743" lon="6.52925">
        <ele>1811.7</ele>
        <time>2024-03-23T14:40:49.278Z</time>
      </trkpt>
      <trkpt lat="45.36742" lon="6.52924">
        <ele>1812.82</ele>
        <time>2024-03-23T14:40:57.121Z</time>
      </trkpt>
      <trkpt lat="45.36738" lon="6.52925">
        <ele>1813.01</ele>
        <time>2024-03-23T14:41:02.879Z</time>
      </trkpt>
      <trkpt lat="45.36736" lon="6.5293">
        <ele>1813.12</ele>
        <time>2024-03-23T14:41:08.259Z</time>
      </trkpt>
      <trkpt lat="45.36737" lon="6.52929">
        <ele>1813.02</ele>
        <time>2024-03-23T14:41:09.566Z</time>
      </trkpt>
      <trkpt lat="45.36738" lon="6.52929">
        <ele>1812.95</ele>
        <time>2024-03-23T14:41:10.636Z</time>
      </trkpt>
      <trkpt lat="45.36739" lon="6.52928">
        <ele>1812.81</ele>
        <time>2024-03-23T14:41:11.943Z</time>
      </trkpt>
      <trkpt lat="45.3674" lon="6.52928">
        <ele>1812.38</ele>
        <time>2024-03-23T14:41:13.012Z</time>
      </trkpt>
      <trkpt lat="45.36748" lon="6.52926">
        <ele>1812.32</ele>
        <time>2024-03-23T14:41:22.719Z</time>
      </trkpt>
      <trkpt lat="45.36747" lon="6.52927">
        <ele>1811.88</ele>
        <time>2024-03-23T14:41:24.026Z</time>
      </trkpt>
      <trkpt lat="45.36745" lon="6.52927">
        <ele>1811.27</ele>
        <time>2024-03-23T14:41:26.165Z</time>
      </trkpt>
      <trkpt lat="45.36743" lon="6.5294">
        <ele>1810.09</ele>
        <time>2024-03-23T14:41:36.165Z</time>
      </trkpt>
      <trkpt lat="45.36743" lon="6.52951">
        <ele>1809.08</ele>
        <time>2024-03-23T14:41:44.430Z</time>
      </trkpt>
      <trkpt lat="45.36746" lon="6.52965">
        <ele>1808.31</ele>
        <time>2024-03-23T14:41:55.429Z</time>
      </trkpt>
      <trkpt lat="45.3675" lon="6.52985">
        <ele>1812.23</ele>
        <time>2024-03-23T14:42:42.726Z</time>
      </trkpt>
      <trkpt lat="45.36744" lon="6.52987">
        <ele>1822.48</ele>
        <time>2024-03-23T14:43:22.272Z</time>
      </trkpt>
      <trkpt lat="45.36734" lon="6.52986">
        <ele>1825.8</ele>
        <time>2024-03-23T14:44:04.439Z</time>
      </trkpt>
      <trkpt lat="45.36729" lon="6.52985">
        <ele>1825.5</ele>
        <time>2024-03-23T14:44:09.839Z</time>
      </trkpt>
      <trkpt lat="45.3672" lon="6.52985">
        <ele>1824.45</ele>
        <time>2024-03-23T14:44:19.465Z</time>
      </trkpt>
      <trkpt lat="45.3671" lon="6.52986">
        <ele>1823.25</ele>
        <time>2024-03-23T14:44:30.187Z</time>
      </trkpt>
      <trkpt lat="45.36701" lon="6.5299">
        <ele>1822.53</ele>
        <time>2024-03-23T14:44:40.272Z</time>
      </trkpt>
      <trkpt lat="45.36694" lon="6.52996">
        <ele>1821.94</ele>
        <time>2024-03-23T14:44:49.011Z</time>
      </trkpt>
      <trkpt lat="45.36685" lon="6.53003">
        <ele>1821.27</ele>
        <time>2024-03-23T14:44:59.981Z</time>
      </trkpt>
      <trkpt lat="45.36679" lon="6.53016">
        <ele>1820.82</ele>
        <time>2024-03-23T14:45:11.785Z</time>
      </trkpt>
      <trkpt lat="45.36672" lon="6.53027">
        <ele>1820.42</ele>
        <time>2024-03-23T14:45:23.142Z</time>
      </trkpt>
      <trkpt lat="45.36664" lon="6.53036">
        <ele>1820.02</ele>
        <time>2024-03-23T14:45:34.221Z</time>
      </trkpt>
      <trkpt lat="45.36654" lon="6.53044">
        <ele>1819.67</ele>
        <time>2024-03-23T14:45:47.008Z</time>
      </trkpt>
      <trkpt lat="45.36644" lon="6.53046">
        <ele>1821.09</ele>
        <time>2024-03-23T14:46:06.820Z</time>
      </trkpt>
      <trkpt lat="45.36637" lon="6.53048">
        <ele>1823.39</ele>
        <time>2024-03-23T14:46:35.744Z</time>
      </trkpt>
      <trkpt lat="45.36627" lon="6.5305">
        <ele>1824.13</ele>
        <time>2024-03-23T14:46:51.377Z</time>
      </trkpt>
      <trkpt lat="45.36619" lon="6.53052">
        <ele>1830.59</ele>
        <time>2024-03-23T14:47:43.501Z</time>
      </trkpt>
      <trkpt lat="45.3661" lon="6.5305">
        <ele>1832.8</ele>
        <time>2024-03-23T14:48:10.039Z</time>
      </trkpt>
      <trkpt lat="45.36603" lon="6.53055">
        <ele>1832.61</ele>
        <time>2024-03-23T14:48:18.934Z</time>
      </trkpt>
      <trkpt lat="45.36604" lon="6.53045">
        <ele>1835.85</ele>
        <time>2024-03-23T14:49:04.475Z</time>
      </trkpt>
      <trkpt lat="45.36606" lon="6.5304">
        <ele>1834.76</ele>
        <time>2024-03-23T14:49:08.798Z</time>
      </trkpt>
      <trkpt lat="45.36605" lon="6.53037">
        <ele>1833</ele>
        <time>2024-03-23T14:49:11.293Z</time>
      </trkpt>
      <trkpt lat="45.36606" lon="6.53037">
        <ele>1831.23</ele>
        <time>2024-03-23T14:49:12.363Z</time>
      </trkpt>
      <trkpt lat="45.36607" lon="6.53034">
        <ele>1830.33</ele>
        <time>2024-03-23T14:49:14.858Z</time>
      </trkpt>
      <trkpt lat="45.36606" lon="6.53033">
        <ele>1829.58</ele>
        <time>2024-03-23T14:49:16.165Z</time>
      </trkpt>
      <trkpt lat="45.36606" lon="6.53031">
        <ele>1827.72</ele>
        <time>2024-03-23T14:49:17.668Z</time>
      </trkpt>
      <trkpt lat="45.36595" lon="6.53036">
        <ele>1833.6</ele>
        <time>2024-03-23T14:50:31.771Z</time>
      </trkpt>
      <trkpt lat="45.36592" lon="6.5305">
        <ele>1848.1</ele>
        <time>2024-03-23T14:51:37.763Z</time>
      </trkpt>
      <trkpt lat="45.36587" lon="6.53029">
        <ele>1855.64</ele>
        <time>2024-03-23T14:53:17.734Z</time>
      </trkpt>
      <trkpt lat="45.36598" lon="6.53018">
        <ele>1864.15</ele>
        <time>2024-03-23T14:54:44.005Z</time>
      </trkpt>
      <trkpt lat="45.36609" lon="6.53013">
        <ele>1860.5</ele>
        <time>2024-03-23T14:54:56.356Z</time>
      </trkpt>
      <trkpt lat="45.36603" lon="6.52997">
        <ele>1854.76</ele>
        <time>2024-03-23T14:55:09.984Z</time>
      </trkpt>
      <trkpt lat="45.36604" lon="6.52984">
        <ele>1849.81</ele>
        <time>2024-03-23T14:55:19.811Z</time>
      </trkpt>
      <trkpt lat="45.36599" lon="6.52972">
        <ele>1846.7</ele>
        <time>2024-03-23T14:55:30.295Z</time>
      </trkpt>
      <trkpt lat="45.36592" lon="6.52962">
        <ele>1850.41</ele>
        <time>2024-03-23T14:56:19.964Z</time>
      </trkpt>
      <trkpt lat="45.3659" lon="6.52953">
        <ele>1846.47</ele>
        <time>2024-03-23T14:56:27.058Z</time>
      </trkpt>
      <trkpt lat="45.366" lon="6.52948">
        <ele>1840.95</ele>
        <time>2024-03-23T14:56:38.394Z</time>
      </trkpt>
      <trkpt lat="45.36607" lon="6.5295">
        <ele>1835.66</ele>
        <time>2024-03-23T14:56:46.030Z</time>
      </trkpt>
      <trkpt lat="45.36599" lon="6.52937">
        <ele>1837.7</ele>
        <time>2024-03-23T14:57:12.410Z</time>
      </trkpt>
      <trkpt lat="45.36596" lon="6.52925">
        <ele>1835.84</ele>
        <time>2024-03-23T14:57:21.981Z</time>
      </trkpt>
      <trkpt lat="45.36584" lon="6.5291">
        <ele>1832.5</ele>
        <time>2024-03-23T14:57:39.062Z</time>
      </trkpt>
      <trkpt lat="45.36581" lon="6.52894">
        <ele>1828.28</ele>
        <time>2024-03-23T14:57:51.506Z</time>
      </trkpt>
      <trkpt lat="45.36577" lon="6.5288">
        <ele>1822.93</ele>
        <time>2024-03-23T14:58:02.863Z</time>
      </trkpt>
      <trkpt lat="45.36578" lon="6.52865">
        <ele>1817.92</ele>
        <time>2024-03-23T14:58:14.186Z</time>
      </trkpt>
      <trkpt lat="45.36585" lon="6.52852">
        <ele>1813.58</ele>
        <time>2024-03-23T14:58:26.493Z</time>
      </trkpt>
      <trkpt lat="45.36587" lon="6.52841">
        <ele>1809.46</ele>
        <time>2024-03-23T14:58:35.032Z</time>
      </trkpt>
      <trkpt lat="45.36583" lon="6.52826">
        <ele>1805.75</ele>
        <time>2024-03-23T14:58:47.088Z</time>
      </trkpt>
      <trkpt lat="45.36578" lon="6.52815">
        <ele>1805.22</ele>
        <time>2024-03-23T14:58:56.933Z</time>
      </trkpt>
      <trkpt lat="45.36569" lon="6.52814">
        <ele>1802.21</ele>
        <time>2024-03-23T14:59:06.588Z</time>
      </trkpt>
      <trkpt lat="45.3657" lon="6.528">
        <ele>1798.2</ele>
        <time>2024-03-23T14:59:17.163Z</time>
      </trkpt>
      <trkpt lat="45.36569" lon="6.52788">
        <ele>1794.62</ele>
        <time>2024-03-23T14:59:26.243Z</time>
      </trkpt>
      <trkpt lat="45.36567" lon="6.52773">
        <ele>1795.32</ele>
        <time>2024-03-23T14:59:42.407Z</time>
      </trkpt>
      <trkpt lat="45.36576" lon="6.52763">
        <ele>1794.2</ele>
        <time>2024-03-23T14:59:54.619Z</time>
      </trkpt>
      <trkpt lat="45.36586" lon="6.52761">
        <ele>1789.77</ele>
        <time>2024-03-23T15:00:05.420Z</time>
      </trkpt>
      <trkpt lat="45.3659" lon="6.5275">
        <ele>1784.24</ele>
        <time>2024-03-23T15:00:14.727Z</time>
      </trkpt>
      <trkpt lat="45.36596" lon="6.52743">
        <ele>1779.19</ele>
        <time>2024-03-23T15:00:23.025Z</time>
      </trkpt>
      <trkpt lat="45.36605" lon="6.52739">
        <ele>1774.71</ele>
        <time>2024-03-23T15:00:33.109Z</time>
      </trkpt>
      <trkpt lat="45.36616" lon="6.52737">
        <ele>1770.44</ele>
        <time>2024-03-23T15:00:44.970Z</time>
      </trkpt>
      <trkpt lat="45.36622" lon="6.52729">
        <ele>1766.66</ele>
        <time>2024-03-23T15:00:53.763Z</time>
      </trkpt>
      <trkpt lat="45.36628" lon="6.52722">
        <ele>1763.28</ele>
        <time>2024-03-23T15:01:02.061Z</time>
      </trkpt>
      <trkpt lat="45.36636" lon="6.52711">
        <ele>1760.12</ele>
        <time>2024-03-23T15:01:13.958Z</time>
      </trkpt>
      <trkpt lat="45.36647" lon="6.52716">
        <ele>1757.66</ele>
        <time>2024-03-23T15:01:26.308Z</time>
      </trkpt>
      <trkpt lat="45.36657" lon="6.52715">
        <ele>1755.81</ele>
        <time>2024-03-23T15:01:37.030Z</time>
      </trkpt>
      <trkpt lat="45.36664" lon="6.52702">
        <ele>1753.85</ele>
        <time>2024-03-23T15:01:49.338Z</time>
      </trkpt>
      <trkpt lat="45.36668" lon="6.52689">
        <ele>1755.68</ele>
        <time>2024-03-23T15:02:12.322Z</time>
      </trkpt>
      <trkpt lat="45.36669" lon="6.52681">
        <ele>1755.1</ele>
        <time>2024-03-23T15:02:18.428Z</time>
      </trkpt>
      <trkpt lat="45.36663" lon="6.52669">
        <ele>1753.39</ele>
        <time>2024-03-23T15:02:29.496Z</time>
      </trkpt>
      <trkpt lat="45.36661" lon="6.52661">
        <ele>1749.19</ele>
        <time>2024-03-23T15:02:35.877Z</time>
      </trkpt>
      <trkpt lat="45.36665" lon="6.52658">
        <ele>1748.19</ele>
        <time>2024-03-23T15:02:40.712Z</time>
      </trkpt>
      <trkpt lat="45.3667" lon="6.52648">
        <ele>1749.69</ele>
        <time>2024-03-23T15:02:59.874Z</time>
      </trkpt>
      <trkpt lat="45.36668" lon="6.52638">
        <ele>1748.23</ele>
        <time>2024-03-23T15:03:07.687Z</time>
      </trkpt>
      <trkpt lat="45.36666" lon="6.52627">
        <ele>1745.92</ele>
        <time>2024-03-23T15:03:16.225Z</time>
      </trkpt>
      <trkpt lat="45.36667" lon="6.5263">
        <ele>1744.34</ele>
        <time>2024-03-23T15:03:18.720Z</time>
      </trkpt>
      <trkpt lat="45.36667" lon="6.52628">
        <ele>1741.54</ele>
        <time>2024-03-23T15:03:20.223Z</time>
      </trkpt>
      <trkpt lat="45.36662" lon="6.52613">
        <ele>1739.44</ele>
        <time>2024-03-23T15:03:32.699Z</time>
      </trkpt>
      <trkpt lat="45.36659" lon="6.52601">
        <ele>1737.74</ele>
        <time>2024-03-23T15:03:42.270Z</time>
      </trkpt>
      <trkpt lat="45.36659" lon="6.52591">
        <ele>1736.03</ele>
        <time>2024-03-23T15:03:49.785Z</time>
      </trkpt>
      <trkpt lat="45.36661" lon="6.52596">
        <ele>1734.69</ele>
        <time>2024-03-23T15:03:54.108Z</time>
      </trkpt>
      <trkpt lat="45.3666" lon="6.52596">
        <ele>1733.39</ele>
        <time>2024-03-23T15:03:55.178Z</time>
      </trkpt>
      <trkpt lat="45.36659" lon="6.52597">
        <ele>1732.58</ele>
        <time>2024-03-23T15:03:56.485Z</time>
      </trkpt>
      <trkpt lat="45.36659" lon="6.52598">
        <ele>1730.31</ele>
        <time>2024-03-23T15:03:57.236Z</time>
      </trkpt>
      <trkpt lat="45.36661" lon="6.52597">
        <ele>1729.75</ele>
        <time>2024-03-23T15:03:59.503Z</time>
      </trkpt>
      <trkpt lat="45.36663" lon="6.52597">
        <ele>1729.33</ele>
        <time>2024-03-23T15:04:01.642Z</time>
      </trkpt>
      <trkpt lat="45.36661" lon="6.52596">
        <ele>1727.82</ele>
        <time>2024-03-23T15:04:03.910Z</time>
      </trkpt>
      <trkpt lat="45.36655" lon="6.52577">
        <ele>1732.69</ele>
        <time>2024-03-23T15:05:05.875Z</time>
      </trkpt>
      <trkpt lat="45.36652" lon="6.52563">
        <ele>1732.91</ele>
        <time>2024-03-23T15:05:19.312Z</time>
      </trkpt>
      <trkpt lat="45.3665" lon="6.52548">
        <ele>1731.4</ele>
        <time>2024-03-23T15:05:30.785Z</time>
      </trkpt>
      <trkpt lat="45.36656" lon="6.52539">
        <ele>1729.1</ele>
        <time>2024-03-23T15:05:40.108Z</time>
      </trkpt>
      <trkpt lat="45.36667" lon="6.52542">
        <ele>1726.6</ele>
        <time>2024-03-23T15:05:52.087Z</time>
      </trkpt>
      <trkpt lat="45.36672" lon="6.52533">
        <ele>1723.97</ele>
        <time>2024-03-23T15:06:00.709Z</time>
      </trkpt>
      <trkpt lat="45.36668" lon="6.52516">
        <ele>1721.5</ele>
        <time>2024-03-23T15:06:14.180Z</time>
      </trkpt>
      <trkpt lat="45.36661" lon="6.52503">
        <ele>1718.75</ele>
        <time>2024-03-23T15:06:26.488Z</time>
      </trkpt>
      <trkpt lat="45.36655" lon="6.52488">
        <ele>1715.95</ele>
        <time>2024-03-23T15:06:39.458Z</time>
      </trkpt>
      <trkpt lat="45.36651" lon="6.52474">
        <ele>1713.09</ele>
        <time>2024-03-23T15:06:50.815Z</time>
      </trkpt>
      <trkpt lat="45.36642" lon="6.52465">
        <ele>1710.42</ele>
        <time>2024-03-23T15:07:02.579Z</time>
      </trkpt>
      <trkpt lat="45.36638" lon="6.52454">
        <ele>1708.17</ele>
        <time>2024-03-23T15:07:11.887Z</time>
      </trkpt>
      <trkpt lat="45.3665" lon="6.5245">
        <ele>1705.09</ele>
        <time>2024-03-23T15:07:25.069Z</time>
      </trkpt>
      <trkpt lat="45.36663" lon="6.52451">
        <ele>1702.57</ele>
        <time>2024-03-23T15:07:38.993Z</time>
      </trkpt>
      <trkpt lat="45.36672" lon="6.52445">
        <ele>1700.59</ele>
        <time>2024-03-23T15:07:49.623Z</time>
      </trkpt>
      <trkpt lat="45.36666" lon="6.52433">
        <ele>1698.11</ele>
        <time>2024-03-23T15:08:00.690Z</time>
      </trkpt>
      <trkpt lat="45.36656" lon="6.52428">
        <ele>1695.18</ele>
        <time>2024-03-23T15:08:12.026Z</time>
      </trkpt>
      <trkpt lat="45.36649" lon="6.52422">
        <ele>1693.22</ele>
        <time>2024-03-23T15:08:20.766Z</time>
      </trkpt>
      <trkpt lat="45.36646" lon="6.52409">
        <ele>1691.17</ele>
        <time>2024-03-23T15:08:31.048Z</time>
      </trkpt>
      <trkpt lat="45.36656" lon="6.524">
        <ele>1689.03</ele>
        <time>2024-03-23T15:08:43.702Z</time>
      </trkpt>
      <trkpt lat="45.36663" lon="6.52393">
        <ele>1686.8</ele>
        <time>2024-03-23T15:08:52.852Z</time>
      </trkpt>
      <trkpt lat="45.36653" lon="6.52383">
        <ele>1684.55</ele>
        <time>2024-03-23T15:09:05.924Z</time>
      </trkpt>
      <trkpt lat="45.36645" lon="6.52373">
        <ele>1682.65</ele>
        <time>2024-03-23T15:09:17.311Z</time>
      </trkpt>
      <trkpt lat="45.36648" lon="6.52359">
        <ele>1680.27</ele>
        <time>2024-03-23T15:09:28.310Z</time>
      </trkpt>
      <trkpt lat="45.36654" lon="6.52347">
        <ele>1677.71</ele>
        <time>2024-03-23T15:09:39.378Z</time>
      </trkpt>
      <trkpt lat="45.36656" lon="6.52333">
        <ele>1675.53</ele>
        <time>2024-03-23T15:09:50.113Z</time>
      </trkpt>
      <trkpt lat="45.36661" lon="6.52324">
        <ele>1673.58</ele>
        <time>2024-03-23T15:09:58.735Z</time>
      </trkpt>
      <trkpt lat="45.36666" lon="6.52314">
        <ele>1671.87</ele>
        <time>2024-03-23T15:10:07.958Z</time>
      </trkpt>
      <trkpt lat="45.3667" lon="6.52307">
        <ele>1670.58</ele>
        <time>2024-03-23T15:10:14.738Z</time>
      </trkpt>
      <trkpt lat="45.36669" lon="6.5231">
        <ele>1671.41</ele>
        <time>2024-03-23T15:10:25.595Z</time>
      </trkpt>
      <trkpt lat="45.36669" lon="6.52313">
        <ele>1671.06</ele>
        <time>2024-03-23T15:10:27.850Z</time>
      </trkpt>
      <trkpt lat="45.36668" lon="6.52313">
        <ele>1670.23</ele>
        <time>2024-03-23T15:10:28.919Z</time>
      </trkpt>
      <trkpt lat="45.36673" lon="6.52313">
        <ele>1669.31</ele>
        <time>2024-03-23T15:10:34.267Z</time>
      </trkpt>
      <trkpt lat="45.36672" lon="6.52312">
        <ele>1667.98</ele>
        <time>2024-03-23T15:10:35.574Z</time>
      </trkpt>
      <trkpt lat="45.36667" lon="6.52315">
        <ele>1670.68</ele>
        <time>2024-03-23T15:11:10.395Z</time>
      </trkpt>
      <trkpt lat="45.36667" lon="6.52313">
        <ele>1671.82</ele>
        <time>2024-03-23T15:11:19.412Z</time>
      </trkpt>
      <trkpt lat="45.36667" lon="6.52309">
        <ele>1671.56</ele>
        <time>2024-03-23T15:11:22.418Z</time>
      </trkpt>
      <trkpt lat="45.36668" lon="6.52309">
        <ele>1675.86</ele>
        <time>2024-03-23T15:11:28.835Z</time>
      </trkpt>
      <trkpt lat="45.36684" lon="6.52307">
        <ele>1676.07</ele>
        <time>2024-03-23T15:11:49.281Z</time>
      </trkpt>
      <trkpt lat="45.3669" lon="6.52293">
        <ele>1673.34</ele>
        <time>2024-03-23T15:12:01.604Z</time>
      </trkpt>
      <trkpt lat="45.36697" lon="6.52286">
        <ele>1671.19</ele>
        <time>2024-03-23T15:12:10.754Z</time>
      </trkpt>
      <trkpt lat="45.36706" lon="6.52286">
        <ele>1669.44</ele>
        <time>2024-03-23T15:12:20.380Z</time>
      </trkpt>
      <trkpt lat="45.36716" lon="6.52289">
        <ele>1667.5</ele>
        <time>2024-03-23T15:12:31.310Z</time>
      </trkpt>
      <trkpt lat="45.36726" lon="6.52291">
        <ele>1669.37</ele>
        <time>2024-03-23T15:12:54.737Z</time>
      </trkpt>
      <trkpt lat="45.36735" lon="6.52281">
        <ele>1670.87</ele>
        <time>2024-03-23T15:13:16.395Z</time>
      </trkpt>
      <trkpt lat="45.36739" lon="6.52273">
        <ele>1668.86</ele>
        <time>2024-03-23T15:13:23.773Z</time>
      </trkpt>
      <trkpt lat="45.36746" lon="6.52264">
        <ele>1666.68</ele>
        <time>2024-03-23T15:13:33.862Z</time>
      </trkpt>
      <trkpt lat="45.36752" lon="6.52257">
        <ele>1664.86</ele>
        <time>2024-03-23T15:13:42.160Z</time>
      </trkpt>
      <trkpt lat="45.36758" lon="6.52244">
        <ele>1662.04</ele>
        <time>2024-03-23T15:13:53.848Z</time>
      </trkpt>
      <trkpt lat="45.36764" lon="6.52234">
        <ele>1658.34</ele>
        <time>2024-03-23T15:14:03.729Z</time>
      </trkpt>
      <trkpt lat="45.36772" lon="6.52235">
        <ele>1654.68</ele>
        <time>2024-03-23T15:14:12.319Z</time>
      </trkpt>
      <trkpt lat="45.36781" lon="6.52234">
        <ele>1651.7</ele>
        <time>2024-03-23T15:14:21.974Z</time>
      </trkpt>
      <trkpt lat="45.36793" lon="6.52237">
        <ele>1648.74</ele>
        <time>2024-03-23T15:14:35.005Z</time>
      </trkpt>
      <trkpt lat="45.36805" lon="6.52243">
        <ele>1646.05</ele>
        <time>2024-03-23T15:14:48.609Z</time>
      </trkpt>
      <trkpt lat="45.36819" lon="6.52246">
        <ele>1643.46</ele>
        <time>2024-03-23T15:15:03.751Z</time>
      </trkpt>
      <trkpt lat="45.36829" lon="6.52242">
        <ele>1640.78</ele>
        <time>2024-03-23T15:15:14.861Z</time>
      </trkpt>
      <trkpt lat="45.36837" lon="6.5223">
        <ele>1638.04</ele>
        <time>2024-03-23T15:15:27.291Z</time>
      </trkpt>
      <trkpt lat="45.36838" lon="6.52216">
        <ele>1635.06</ele>
        <time>2024-03-23T15:15:37.865Z</time>
      </trkpt>
      <trkpt lat="45.36843" lon="6.52203">
        <ele>1631.87</ele>
        <time>2024-03-23T15:15:49.002Z</time>
      </trkpt>
      <trkpt lat="45.36845" lon="6.52189">
        <ele>1628.91</ele>
        <time>2024-03-23T15:15:59.737Z</time>
      </trkpt>
      <trkpt lat="45.3685" lon="6.52176">
        <ele>1626.52</ele>
        <time>2024-03-23T15:16:10.873Z</time>
      </trkpt>
      <trkpt lat="45.36856" lon="6.52162">
        <ele>1624.62</ele>
        <time>2024-03-23T15:16:23.196Z</time>
      </trkpt>
      <trkpt lat="45.36858" lon="6.52146">
        <ele>1622.87</ele>
        <time>2024-03-23T15:16:35.407Z</time>
      </trkpt>
      <trkpt lat="45.36854" lon="6.52132">
        <ele>1620.94</ele>
        <time>2024-03-23T15:16:46.763Z</time>
      </trkpt>
      <trkpt lat="45.36848" lon="6.5212">
        <ele>1619.17</ele>
        <time>2024-03-23T15:16:57.831Z</time>
      </trkpt>
      <trkpt lat="45.36845" lon="6.52105">
        <ele>1617.06</ele>
        <time>2024-03-23T15:17:09.550Z</time>
      </trkpt>
      <trkpt lat="45.36843" lon="6.52089">
        <ele>1614.71</ele>
        <time>2024-03-23T15:17:21.761Z</time>
      </trkpt>
      <trkpt lat="45.36842" lon="6.52075">
        <ele>1611.96</ele>
        <time>2024-03-23T15:17:32.335Z</time>
      </trkpt>
      <trkpt lat="45.36849" lon="6.52063">
        <ele>1609.74</ele>
        <time>2024-03-23T15:17:44.055Z</time>
      </trkpt>
      <trkpt lat="45.36856" lon="6.52063">
        <ele>1607.57</ele>
        <time>2024-03-23T15:17:51.542Z</time>
      </trkpt>
      <trkpt lat="45.36863" lon="6.52059">
        <ele>1605.17</ele>
        <time>2024-03-23T15:17:59.610Z</time>
      </trkpt>
      <trkpt lat="45.36872" lon="6.52051">
        <ele>1603.19</ele>
        <time>2024-03-23T15:18:10.958Z</time>
      </trkpt>
      <trkpt lat="45.36875" lon="6.52035">
        <ele>1601.18</ele>
        <time>2024-03-23T15:18:23.402Z</time>
      </trkpt>
      <trkpt lat="45.36875" lon="6.52018">
        <ele>1599.4</ele>
        <time>2024-03-23T15:18:36.176Z</time>
      </trkpt>
      <trkpt lat="45.36877" lon="6.52016">
        <ele>1597.85</ele>
        <time>2024-03-23T15:18:38.790Z</time>
      </trkpt>
      <trkpt lat="45.36875" lon="6.52001">
        <ele>1596.11</ele>
        <time>2024-03-23T15:18:50.262Z</time>
      </trkpt>
      <trkpt lat="45.36878" lon="6.5198">
        <ele>1594.2</ele>
        <time>2024-03-23T15:19:06.365Z</time>
      </trkpt>
      <trkpt lat="45.36879" lon="6.51963">
        <ele>1592.44</ele>
        <time>2024-03-23T15:19:19.183Z</time>
      </trkpt>
      <trkpt lat="45.36884" lon="6.51948">
        <ele>1590.18</ele>
        <time>2024-03-23T15:19:31.659Z</time>
      </trkpt>
      <trkpt lat="45.36889" lon="6.51933">
        <ele>1587.94</ele>
        <time>2024-03-23T15:19:44.134Z</time>
      </trkpt>
      <trkpt lat="45.36892" lon="6.51917">
        <ele>1585.97</ele>
        <time>2024-03-23T15:19:56.577Z</time>
      </trkpt>
      <trkpt lat="45.369" lon="6.51901">
        <ele>1584.26</ele>
        <time>2024-03-23T15:20:11.334Z</time>
      </trkpt>
      <trkpt lat="45.36907" lon="6.51887">
        <ele>1582.55</ele>
        <time>2024-03-23T15:20:24.246Z</time>
      </trkpt>
      <trkpt lat="45.36915" lon="6.51883">
        <ele>1581.05</ele>
        <time>2024-03-23T15:20:33.315Z</time>
      </trkpt>
      <trkpt lat="45.36915" lon="6.51885">
        <ele>1580.13</ele>
        <time>2024-03-23T15:20:34.817Z</time>
      </trkpt>
      <trkpt lat="45.36915" lon="6.51887">
        <ele>1579.33</ele>
        <time>2024-03-23T15:20:36.320Z</time>
      </trkpt>
      <trkpt lat="45.36915" lon="6.51888">
        <ele>1578.5</ele>
        <time>2024-03-23T15:20:37.072Z</time>
      </trkpt>
      <trkpt lat="45.36909" lon="6.51895">
        <ele>1577.8</ele>
        <time>2024-03-23T15:20:45.369Z</time>
      </trkpt>
      <trkpt lat="45.36913" lon="6.51879">
        <ele>1576.78</ele>
        <time>2024-03-23T15:20:58.130Z</time>
      </trkpt>
      <trkpt lat="45.36915" lon="6.51863">
        <ele>1575.72</ele>
        <time>2024-03-23T15:21:10.341Z</time>
      </trkpt>
      <trkpt lat="45.36911" lon="6.51851">
        <ele>1574.32</ele>
        <time>2024-03-23T15:21:20.321Z</time>
      </trkpt>
      <trkpt lat="45.36911" lon="6.51835">
        <ele>1572.94</ele>
        <time>2024-03-23T15:21:32.344Z</time>
      </trkpt>
      <trkpt lat="45.36916" lon="6.51827">
        <ele>1571.51</ele>
        <time>2024-03-23T15:21:40.390Z</time>
      </trkpt>
      <trkpt lat="45.36919" lon="6.5181">
        <ele>1570.32</ele>
        <time>2024-03-23T15:21:53.560Z</time>
      </trkpt>
      <trkpt lat="45.36925" lon="6.51797">
        <ele>1568.76</ele>
        <time>2024-03-23T15:22:05.248Z</time>
      </trkpt>
      <trkpt lat="45.36937" lon="6.51794">
        <ele>1566.73</ele>
        <time>2024-03-23T15:22:18.279Z</time>
      </trkpt>
      <trkpt lat="45.3695" lon="6.51797">
        <ele>1564.88</ele>
        <time>2024-03-23T15:22:32.365Z</time>
      </trkpt>
      <trkpt lat="45.36962" lon="6.51795">
        <ele>1562.96</ele>
        <time>2024-03-23T15:22:45.287Z</time>
      </trkpt>
      <trkpt lat="45.36971" lon="6.51788">
        <ele>1561.22</ele>
        <time>2024-03-23T15:22:56.256Z</time>
      </trkpt>
      <trkpt lat="45.36984" lon="6.51794">
        <ele>1559.37</ele>
        <time>2024-03-23T15:23:10.873Z</time>
      </trkpt>
      <trkpt lat="45.36996" lon="6.51798">
        <ele>1557.67</ele>
        <time>2024-03-23T15:23:24.055Z</time>
      </trkpt>
      <trkpt lat="45.37008" lon="6.518">
        <ele>1556.61</ele>
        <time>2024-03-23T15:23:36.977Z</time>
      </trkpt>
      <trkpt lat="45.37017" lon="6.51794">
        <ele>1555.58</ele>
        <time>2024-03-23T15:23:47.607Z</time>
      </trkpt>
      <trkpt lat="45.37016" lon="6.51779">
        <ele>1554.24</ele>
        <time>2024-03-23T15:23:58.928Z</time>
      </trkpt>
      <trkpt lat="45.37015" lon="6.51763">
        <ele>1552.89</ele>
        <time>2024-03-23T15:24:10.998Z</time>
      </trkpt>
      <trkpt lat="45.37013" lon="6.51761">
        <ele>1551.38</ele>
        <time>2024-03-23T15:24:13.612Z</time>
      </trkpt>
      <trkpt lat="45.37018" lon="6.51743">
        <ele>1549.52</ele>
        <time>2024-03-23T15:24:28.156Z</time>
      </trkpt>
      <trkpt lat="45.37024" lon="6.51726">
        <ele>1547.99</ele>
        <time>2024-03-23T15:24:42.451Z</time>
      </trkpt>
      <trkpt lat="45.37033" lon="6.5171">
        <ele>1546.32</ele>
        <time>2024-03-23T15:24:57.852Z</time>
      </trkpt>
      <trkpt lat="45.37038" lon="6.51695">
        <ele>1545.12</ele>
        <time>2024-03-23T15:25:10.327Z</time>
      </trkpt>
      <trkpt lat="45.37043" lon="6.51678">
        <ele>1544.02</ele>
        <time>2024-03-23T15:25:24.175Z</time>
      </trkpt>
      <trkpt lat="45.37044" lon="6.51657">
        <ele>1543.22</ele>
        <time>2024-03-23T15:25:39.990Z</time>
      </trkpt>
      <trkpt lat="45.37051" lon="6.51643">
        <ele>1542.5</ele>
        <time>2024-03-23T15:25:52.902Z</time>
      </trkpt>
      <trkpt lat="45.37058" lon="6.51633">
        <ele>1541.79</ele>
        <time>2024-03-23T15:26:03.509Z</time>
      </trkpt>
      <trkpt lat="45.37064" lon="6.5162">
        <ele>1540.98</ele>
        <time>2024-03-23T15:26:15.196Z</time>
      </trkpt>
      <trkpt lat="45.37069" lon="6.51606">
        <ele>1539.99</ele>
        <time>2024-03-23T15:26:26.997Z</time>
      </trkpt>
      <trkpt lat="45.37076" lon="6.51593">
        <ele>1538.93</ele>
        <time>2024-03-23T15:26:39.304Z</time>
      </trkpt>
      <trkpt lat="45.37084" lon="6.51582">
        <ele>1537.75</ele>
        <time>2024-03-23T15:26:51.200Z</time>
      </trkpt>
      <trkpt lat="45.37092" lon="6.51568">
        <ele>1536.73</ele>
        <time>2024-03-23T15:27:04.760Z</time>
      </trkpt>
      <trkpt lat="45.37097" lon="6.5155">
        <ele>1535.65</ele>
        <time>2024-03-23T15:27:19.304Z</time>
      </trkpt>
      <trkpt lat="45.37099" lon="6.51531">
        <ele>1534.89</ele>
        <time>2024-03-23T15:27:33.739Z</time>
      </trkpt>
      <trkpt lat="45.37096" lon="6.51514">
        <ele>1533.99</ele>
        <time>2024-03-23T15:27:46.909Z</time>
      </trkpt>
      <trkpt lat="45.37092" lon="6.51497">
        <ele>1533.28</ele>
        <time>2024-03-23T15:28:00.380Z</time>
      </trkpt>
      <trkpt lat="45.37089" lon="6.51483">
        <ele>1532.54</ele>
        <time>2024-03-23T15:28:11.378Z</time>
      </trkpt>
      <trkpt lat="45.37084" lon="6.51469">
        <ele>1531.42</ele>
        <time>2024-03-23T15:28:23.179Z</time>
      </trkpt>
      <trkpt lat="45.37082" lon="6.5145">
        <ele>1530.49</ele>
        <time>2024-03-23T15:28:37.614Z</time>
      </trkpt>
      <trkpt lat="45.3708" lon="6.51433">
        <ele>1529.42</ele>
        <time>2024-03-23T15:28:50.566Z</time>
      </trkpt>
      <trkpt lat="45.3708" lon="6.51419">
        <ele>1528.1</ele>
        <time>2024-03-23T15:29:01.085Z</time>
      </trkpt>
      <trkpt lat="45.37079" lon="6.51408">
        <ele>1526.89</ele>
        <time>2024-03-23T15:29:09.419Z</time>
      </trkpt>
      <trkpt lat="45.37079" lon="6.51393">
        <ele>1525.4</ele>
        <time>2024-03-23T15:29:20.690Z</time>
      </trkpt>
      <trkpt lat="45.37081" lon="6.51379">
        <ele>1524.31</ele>
        <time>2024-03-23T15:29:31.424Z</time>
      </trkpt>
      <trkpt lat="45.37085" lon="6.51366">
        <ele>1522.93</ele>
        <time>2024-03-23T15:29:42.088Z</time>
      </trkpt>
      <trkpt lat="45.37088" lon="6.51354">
        <ele>1521.55</ele>
        <time>2024-03-23T15:29:51.658Z</time>
      </trkpt>
      <trkpt lat="45.37087" lon="6.51344">
        <ele>1520.01</ele>
        <time>2024-03-23T15:29:59.248Z</time>
      </trkpt>
      <trkpt lat="45.3708" lon="6.51336">
        <ele>1518.66</ele>
        <time>2024-03-23T15:30:08.849Z</time>
      </trkpt>
      <trkpt lat="45.37076" lon="6.51322">
        <ele>1517.2</ele>
        <time>2024-03-23T15:30:20.205Z</time>
      </trkpt>
      <trkpt lat="45.37071" lon="6.51314">
        <ele>1515.33</ele>
        <time>2024-03-23T15:30:28.251Z</time>
      </trkpt>
      <trkpt lat="45.37061" lon="6.5132">
        <ele>1513.7</ele>
        <time>2024-03-23T15:30:39.858Z</time>
      </trkpt>
      <trkpt lat="45.37059" lon="6.51308">
        <ele>1512.24</ele>
        <time>2024-03-23T15:30:49.124Z</time>
      </trkpt>
      <trkpt lat="45.37065" lon="6.51304">
        <ele>1510.85</ele>
        <time>2024-03-23T15:30:56.211Z</time>
      </trkpt>
      <trkpt lat="45.37065" lon="6.51289">
        <ele>1509.36</ele>
        <time>2024-03-23T15:31:07.481Z</time>
      </trkpt>
      <trkpt lat="45.37059" lon="6.51279">
        <ele>1507.79</ele>
        <time>2024-03-23T15:31:17.363Z</time>
      </trkpt>
      <trkpt lat="45.37061" lon="6.51262">
        <ele>1506.5</ele>
        <time>2024-03-23T15:31:30.314Z</time>
      </trkpt>
      <trkpt lat="45.37063" lon="6.51249">
        <ele>1505.28</ele>
        <time>2024-03-23T15:31:40.313Z</time>
      </trkpt>
      <trkpt lat="45.37062" lon="6.51233">
        <ele>1504.15</ele>
        <time>2024-03-23T15:31:52.383Z</time>
      </trkpt>
      <trkpt lat="45.37069" lon="6.51218">
        <ele>1503.17</ele>
        <time>2024-03-23T15:32:05.914Z</time>
      </trkpt>
      <trkpt lat="45.37078" lon="6.51206">
        <ele>1502.33</ele>
        <time>2024-03-23T15:32:19.103Z</time>
      </trkpt>
      <trkpt lat="45.37084" lon="6.51193">
        <ele>1501.6</ele>
        <time>2024-03-23T15:32:30.790Z</time>
      </trkpt>
      <trkpt lat="45.37087" lon="6.51176">
        <ele>1500.55</ele>
        <time>2024-03-23T15:32:43.961Z</time>
      </trkpt>
      <trkpt lat="45.37081" lon="6.51156">
        <ele>1499.81</ele>
        <time>2024-03-23T15:33:00.301Z</time>
      </trkpt>
      <trkpt lat="45.37071" lon="6.51144">
        <ele>1498.91</ele>
        <time>2024-03-23T15:33:14.290Z</time>
      </trkpt>
      <trkpt lat="45.37057" lon="6.51137">
        <ele>1498.08</ele>
        <time>2024-03-23T15:33:30.161Z</time>
      </trkpt>
      <trkpt lat="45.37045" lon="6.51125">
        <ele>1497.06</ele>
        <time>2024-03-23T15:33:45.846Z</time>
      </trkpt>
      <trkpt lat="45.37047" lon="6.51121">
        <ele>1496.03</ele>
        <time>2024-03-23T15:33:49.535Z</time>
      </trkpt>
      <trkpt lat="45.37046" lon="6.51107">
        <ele>1494.28</ele>
        <time>2024-03-23T15:34:00.109Z</time>
      </trkpt>
      <trkpt lat="45.37052" lon="6.51089">
        <ele>1492.98</ele>
        <time>2024-03-23T15:34:15.079Z</time>
      </trkpt>
      <trkpt lat="45.37046" lon="6.51072">
        <ele>1492.19</ele>
        <time>2024-03-23T15:34:29.374Z</time>
      </trkpt>
      <trkpt lat="45.37044" lon="6.51059">
        <ele>1491.55</ele>
        <time>2024-03-23T15:34:39.373Z</time>
      </trkpt>
      <trkpt lat="45.37051" lon="6.51058">
        <ele>1491.23</ele>
        <time>2024-03-23T15:34:46.898Z</time>
      </trkpt>
      <trkpt lat="45.37046" lon="6.51034">
        <ele>1490.71</ele>
        <time>2024-03-23T15:35:06.556Z</time>
      </trkpt>
      <trkpt lat="45.37047" lon="6.5102">
        <ele>1490.4</ele>
        <time>2024-03-23T15:35:17.549Z</time>
      </trkpt>
      <trkpt lat="45.37049" lon="6.51016">
        <ele>1489.99</ele>
        <time>2024-03-23T15:35:21.238Z</time>
      </trkpt>
      <trkpt lat="45.37048" lon="6.50992">
        <ele>1489.23</ele>
        <time>2024-03-23T15:35:39.303Z</time>
      </trkpt>
      <trkpt lat="45.37045" lon="6.50972">
        <ele>1488.41</ele>
        <time>2024-03-23T15:35:54.669Z</time>
      </trkpt>
      <trkpt lat="45.37054" lon="6.50961">
        <ele>1487.65</ele>
        <time>2024-03-23T15:36:07.357Z</time>
      </trkpt>
      <trkpt lat="45.37065" lon="6.50954">
        <ele>1487.13</ele>
        <time>2024-03-23T15:36:20.298Z</time>
      </trkpt>
      <trkpt lat="45.37072" lon="6.5094">
        <ele>1486.49</ele>
        <time>2024-03-23T15:36:33.209Z</time>
      </trkpt>
      <trkpt lat="45.37075" lon="6.50924">
        <ele>1485.61</ele>
        <time>2024-03-23T15:36:45.652Z</time>
      </trkpt>
      <trkpt lat="45.37081" lon="6.5091">
        <ele>1484.47</ele>
        <time>2024-03-23T15:36:57.974Z</time>
      </trkpt>
      <trkpt lat="45.37081" lon="6.50903">
        <ele>1483.43</ele>
        <time>2024-03-23T15:37:03.234Z</time>
      </trkpt>
      <trkpt lat="45.3709" lon="6.50884">
        <ele>1482.29</ele>
        <time>2024-03-23T15:37:20.452Z</time>
      </trkpt>
      <trkpt lat="45.37096" lon="6.5087">
        <ele>1481.15</ele>
        <time>2024-03-23T15:37:32.774Z</time>
      </trkpt>
      <trkpt lat="45.37104" lon="6.50859">
        <ele>1479.84</ele>
        <time>2024-03-23T15:37:44.671Z</time>
      </trkpt>
      <trkpt lat="45.37109" lon="6.50851">
        <ele>1478.71</ele>
        <time>2024-03-23T15:37:52.716Z</time>
      </trkpt>
      <trkpt lat="45.37117" lon="6.50844">
        <ele>1478.01</ele>
        <time>2024-03-23T15:38:02.760Z</time>
      </trkpt>
      <trkpt lat="45.37122" lon="6.50842">
        <ele>1477.71</ele>
        <time>2024-03-23T15:38:08.315Z</time>
      </trkpt>
      <trkpt lat="45.37124" lon="6.50845">
        <ele>1477.68</ele>
        <time>2024-03-23T15:38:11.756Z</time>
      </trkpt>
      <trkpt lat="45.37124" lon="6.50844">
        <ele>1477.71</ele>
        <time>2024-03-23T15:38:12.739Z</time>
      </trkpt>
      <trkpt lat="45.37135" lon="6.50836">
        <ele>1477.89</ele>
        <time>2024-03-23T15:38:28.537Z</time>
      </trkpt>
      <trkpt lat="45.37143" lon="6.5083">
        <ele>1478.22</ele>
        <time>2024-03-23T15:38:40.937Z</time>
      </trkpt>
      <trkpt lat="45.37153" lon="6.50818">
        <ele>1478.67</ele>
        <time>2024-03-23T15:38:58.751Z</time>
      </trkpt>
      <trkpt lat="45.37162" lon="6.50806">
        <ele>1479.13</ele>
        <time>2024-03-23T15:39:15.704Z</time>
      </trkpt>
      <trkpt lat="45.3717" lon="6.50795">
        <ele>1479.51</ele>
        <time>2024-03-23T15:39:30.842Z</time>
      </trkpt>
      <trkpt lat="45.37177" lon="6.5078">
        <ele>1479.77</ele>
        <time>2024-03-23T15:39:47.329Z</time>
      </trkpt>
      <trkpt lat="45.37183" lon="6.50765">
        <ele>1480.11</ele>
        <time>2024-03-23T15:40:03.512Z</time>
      </trkpt>
      <trkpt lat="45.37188" lon="6.50748">
        <ele>1480.35</ele>
        <time>2024-03-23T15:40:20.278Z</time>
      </trkpt>
      <trkpt lat="45.37197" lon="6.50736">
        <ele>1480.59</ele>
        <time>2024-03-23T15:40:36.294Z</time>
      </trkpt>
      <trkpt lat="45.37199" lon="6.5074">
        <ele>1480.93</ele>
        <time>2024-03-23T15:40:42.117Z</time>
      </trkpt>
      <trkpt lat="45.372" lon="6.50741">
        <ele>1481.4</ele>
        <time>2024-03-23T15:40:48.494Z</time>
      </trkpt>
      <trkpt lat="45.37209" lon="6.50725">
        <ele>1481.58</ele>
        <time>2024-03-23T15:41:06.791Z</time>
      </trkpt>
      <trkpt lat="45.37218" lon="6.50718">
        <ele>1481.57</ele>
        <time>2024-03-23T15:41:19.289Z</time>
      </trkpt>
      <trkpt lat="45.37228" lon="6.50713">
        <ele>1481.66</ele>
        <time>2024-03-23T15:41:32.590Z</time>
      </trkpt>
      <trkpt lat="45.3724" lon="6.50707">
        <ele>1481.82</ele>
        <time>2024-03-23T15:41:48.755Z</time>
      </trkpt>
      <trkpt lat="45.37251" lon="6.50704">
        <ele>1482.18</ele>
        <time>2024-03-23T15:42:03.900Z</time>
      </trkpt>
      <trkpt lat="45.37258" lon="6.50697">
        <ele>1482.89</ele>
        <time>2024-03-23T15:42:17.587Z</time>
      </trkpt>
      <trkpt lat="45.37266" lon="6.50686">
        <ele>1483.56</ele>
        <time>2024-03-23T15:42:34.070Z</time>
      </trkpt>
      <trkpt lat="45.37267" lon="6.50681">
        <ele>1484.04</ele>
        <time>2024-03-23T15:42:40.999Z</time>
      </trkpt>
      <trkpt lat="45.37272" lon="6.50679">
        <ele>1484.45</ele>
        <time>2024-03-23T15:42:49.194Z</time>
      </trkpt>
      <trkpt lat="45.37274" lon="6.50678">
        <ele>1484.73</ele>
        <time>2024-03-23T15:42:53.226Z</time>
      </trkpt>
      <trkpt lat="45.37277" lon="6.50673">
        <ele>1485.1</ele>
        <time>2024-03-23T15:43:00.544Z</time>
      </trkpt>
      <trkpt lat="45.37304" lon="6.50663">
        <ele>1485.61</ele>
        <time>2024-03-23T15:43:36.643Z</time>
      </trkpt>
      <trkpt lat="45.37303" lon="6.50665">
        <ele>1486.18</ele>
        <time>2024-03-23T15:43:43.878Z</time>
      </trkpt>
      <trkpt lat="45.37301" lon="6.50683">
        <ele>1486.77</ele>
        <time>2024-03-23T15:44:01.986Z</time>
      </trkpt>
      <trkpt lat="45.37298" lon="6.50684">
        <ele>1487.1</ele>
        <time>2024-03-23T15:44:07.346Z</time>
      </trkpt>
      <trkpt lat="45.373" lon="6.50684">
        <ele>1487.41</ele>
        <time>2024-03-23T15:44:11.484Z</time>
      </trkpt>
      <trkpt lat="45.373" lon="6.50685">
        <ele>1487.8</ele>
        <time>2024-03-23T15:44:15.992Z</time>
      </trkpt>
      <trkpt lat="45.37299" lon="6.50685">
        <ele>1488.83</ele>
        <time>2024-03-23T15:44:22.409Z</time>
      </trkpt>
      <trkpt lat="45.373" lon="6.50685">
        <ele>1489.6</ele>
        <time>2024-03-23T15:44:28.826Z</time>
      </trkpt>
      <trkpt lat="45.373" lon="6.50686">
        <ele>1503.34</ele>
        <time>2024-03-23T15:44:33.335Z</time>
      </trkpt>
      <trkpt lat="45.37308" lon="6.50678">
        <ele>1529.04</ele>
        <time>2024-03-23T15:45:36.075Z</time>
      </trkpt>
      <trkpt lat="45.37312" lon="6.50664">
        <ele>1525.96</ele>
        <time>2024-03-23T15:45:47.430Z</time>
      </trkpt>
      <trkpt lat="45.37312" lon="6.50651">
        <ele>1521.8</ele>
        <time>2024-03-23T15:45:57.198Z</time>
      </trkpt>
      <trkpt lat="45.37308" lon="6.50643">
        <ele>1518.43</ele>
        <time>2024-03-23T15:46:04.576Z</time>
      </trkpt>
      <trkpt lat="45.37309" lon="6.50642">
        <ele>1514.88</ele>
        <time>2024-03-23T15:46:05.883Z</time>
      </trkpt>
      <trkpt lat="45.3731" lon="6.50642">
        <ele>1509.03</ele>
        <time>2024-03-23T15:46:06.952Z</time>
      </trkpt>
      <trkpt lat="45.37323" lon="6.50637">
        <ele>1506.74</ele>
        <time>2024-03-23T15:46:21.355Z</time>
      </trkpt>
      <trkpt lat="45.37336" lon="6.50629">
        <ele>1504.44</ele>
        <time>2024-03-23T15:46:36.503Z</time>
      </trkpt>
      <trkpt lat="45.37342" lon="6.50633">
        <ele>1501.8</ele>
        <time>2024-03-23T15:46:43.589Z</time>
      </trkpt>
      <trkpt lat="45.37343" lon="6.50633">
        <ele>1500.36</ele>
        <time>2024-03-23T15:46:44.659Z</time>
      </trkpt>
      <trkpt lat="45.3734" lon="6.50632">
        <ele>1500.12</ele>
        <time>2024-03-23T15:46:47.954Z</time>
      </trkpt>
      <trkpt lat="45.37338" lon="6.50632">
        <ele>1502.9</ele>
        <time>2024-03-23T15:47:00.789Z</time>
      </trkpt>
      <trkpt lat="45.37336" lon="6.50632">
        <ele>1502.75</ele>
        <time>2024-03-23T15:47:02.928Z</time>
      </trkpt>
      <trkpt lat="45.37336" lon="6.5063">
        <ele>1501.47</ele>
        <time>2024-03-23T15:47:04.430Z</time>
      </trkpt>
      <trkpt lat="45.37337" lon="6.50628">
        <ele>1499.83</ele>
        <time>2024-03-23T15:47:06.275Z</time>
      </trkpt>
      <trkpt lat="45.37336" lon="6.50629">
        <ele>1495.55</ele>
        <time>2024-03-23T15:47:07.582Z</time>
      </trkpt>
      <trkpt lat="45.37335" lon="6.50627">
        <ele>1487.67</ele>
        <time>2024-03-23T15:47:09.426Z</time>
      </trkpt>
      <trkpt lat="45.3734" lon="6.50622">
        <ele>1472.95</ele>
        <time>2024-03-23T15:47:15.962Z</time>
      </trkpt>
      <trkpt lat="45.37339" lon="6.50621">
        <ele>1468.37</ele>
        <time>2024-03-23T15:47:17.269Z</time>
      </trkpt>
      <trkpt lat="45.3735" lon="6.50621">
        <ele>1461.2</ele>
        <time>2024-03-23T15:47:29.034Z</time>
      </trkpt>
      <trkpt lat="45.37357" lon="6.50643">
        <ele>1455.23</ele>
        <time>2024-03-23T15:47:47.180Z</time>
      </trkpt>
      <trkpt lat="45.37366" lon="6.50659">
        <ele>1450.06</ele>
        <time>2024-03-23T15:48:02.581Z</time>
      </trkpt>
      <trkpt lat="45.37378" lon="6.50663">
        <ele>1445.93</ele>
        <time>2024-03-23T15:48:15.762Z</time>
      </trkpt>
      <trkpt lat="45.37378" lon="6.50643">
        <ele>1442.78</ele>
        <time>2024-03-23T15:48:30.789Z</time>
      </trkpt>
      <trkpt lat="45.37381" lon="6.5063">
        <ele>1439.62</ele>
        <time>2024-03-23T15:48:41.070Z</time>
      </trkpt>
      <trkpt lat="45.37381" lon="6.50612">
        <ele>1437.45</ele>
        <time>2024-03-23T15:48:54.594Z</time>
      </trkpt>
      <trkpt lat="45.37387" lon="6.50601">
        <ele>1435.44</ele>
        <time>2024-03-23T15:49:05.058Z</time>
      </trkpt>
      <trkpt lat="45.374" lon="6.50602">
        <ele>1438.59</ele>
        <time>2024-03-23T15:49:42.885Z</time>
      </trkpt>
      <trkpt lat="45.3741" lon="6.50604">
        <ele>1437.05</ele>
        <time>2024-03-23T15:49:53.686Z</time>
      </trkpt>
      <trkpt lat="45.3742" lon="6.50597">
        <ele>1435.07</ele>
        <time>2024-03-23T15:50:05.604Z</time>
      </trkpt>
      <trkpt lat="45.37431" lon="6.50585">
        <ele>1433.41</ele>
        <time>2024-03-23T15:50:20.427Z</time>
      </trkpt>
      <trkpt lat="45.3744" lon="6.50578">
        <ele>1432.03</ele>
        <time>2024-03-23T15:50:31.396Z</time>
      </trkpt>
      <trkpt lat="45.37453" lon="6.50581">
        <ele>1430.88</ele>
        <time>2024-03-23T15:50:45.482Z</time>
      </trkpt>
      <trkpt lat="45.37464" lon="6.50582">
        <ele>1429.91</ele>
        <time>2024-03-23T15:50:57.271Z</time>
      </trkpt>
      <trkpt lat="45.37475" lon="6.50583">
        <ele>1429.11</ele>
        <time>2024-03-23T15:51:09.060Z</time>
      </trkpt>
      <trkpt lat="45.37484" lon="6.50585">
        <ele>1428.51</ele>
        <time>2024-03-23T15:51:18.802Z</time>
      </trkpt>
      <trkpt lat="45.37495" lon="6.50584">
        <ele>1427.98</ele>
        <time>2024-03-23T15:51:30.591Z</time>
      </trkpt>
      <trkpt lat="45.37505" lon="6.50583">
        <ele>1427.43</ele>
        <time>2024-03-23T15:51:41.313Z</time>
      </trkpt>
      <trkpt lat="45.37514" lon="6.50597">
        <ele>1427.04</ele>
        <time>2024-03-23T15:51:56.229Z</time>
      </trkpt>
      <trkpt lat="45.37524" lon="6.50603">
        <ele>1426.75</ele>
        <time>2024-03-23T15:52:08.463Z</time>
      </trkpt>
      <trkpt lat="45.37535" lon="6.50596">
        <ele>1426.47</ele>
        <time>2024-03-23T15:52:22.188Z</time>
      </trkpt>
      <trkpt lat="45.37532" lon="6.50595">
        <ele>1426.31</ele>
        <time>2024-03-23T15:52:25.484Z</time>
      </trkpt>
      <trkpt lat="45.3753" lon="6.50589">
        <ele>1426.18</ele>
        <time>2024-03-23T15:52:30.725Z</time>
      </trkpt>
      <trkpt lat="45.37532" lon="6.50575">
        <ele>1427.25</ele>
        <time>2024-03-23T15:52:48.151Z</time>
      </trkpt>
      <trkpt lat="45.37537" lon="6.50576">
        <ele>1430.58</ele>
        <time>2024-03-23T15:53:20.553Z</time>
      </trkpt>
      <trkpt lat="45.37539" lon="6.50579">
        <ele>1433.11</ele>
        <time>2024-03-23T15:53:39.198Z</time>
      </trkpt>
      <trkpt lat="45.3754" lon="6.50579">
        <ele>1434.68</ele>
        <time>2024-03-23T15:53:45.615Z</time>
      </trkpt>
      <trkpt lat="45.37542" lon="6.50579">
        <ele>1436.53</ele>
        <time>2024-03-23T15:53:58.450Z</time>
      </trkpt>
      <trkpt lat="45.37555" lon="6.50582">
        <ele>1438.79</ele>
        <time>2024-03-23T15:54:27.455Z</time>
      </trkpt>
      <trkpt lat="45.37558" lon="6.50592">
        <ele>1440.3</ele>
        <time>2024-03-23T15:54:46.056Z</time>
      </trkpt>
      <trkpt lat="45.37557" lon="6.50591">
        <ele>1441.86</ele>
        <time>2024-03-23T15:54:53.898Z</time>
      </trkpt>
      <trkpt lat="45.37557" lon="6.50594">
        <ele>1442.97</ele>
        <time>2024-03-23T15:55:07.422Z</time>
      </trkpt>
      <trkpt lat="45.37565" lon="6.50585">
        <ele>1443.4</ele>
        <time>2024-03-23T15:55:21.663Z</time>
      </trkpt>
      <trkpt lat="45.3757" lon="6.50592">
        <ele>1443.82</ele>
        <time>2024-03-23T15:55:32.043Z</time>
      </trkpt>
      <trkpt lat="45.37573" lon="6.5059">
        <ele>1444.2</ele>
        <time>2024-03-23T15:55:37.962Z</time>
      </trkpt>
      <trkpt lat="45.37575" lon="6.50581">
        <ele>1444.3</ele>
        <time>2024-03-23T15:55:46.457Z</time>
      </trkpt>
      <trkpt lat="45.37577" lon="6.5058">
        <ele>1444.48</ele>
        <time>2024-03-23T15:55:49.870Z</time>
      </trkpt>
      <trkpt lat="45.37588" lon="6.50575">
        <ele>1444.74</ele>
        <time>2024-03-23T15:56:05.013Z</time>
      </trkpt>
      <trkpt lat="45.37598" lon="6.50571">
        <ele>1445.02</ele>
        <time>2024-03-23T15:56:18.828Z</time>
      </trkpt>
      <trkpt lat="45.3761" lon="6.50563">
        <ele>1445.07</ele>
        <time>2024-03-23T15:56:35.214Z</time>
      </trkpt>
      <trkpt lat="45.37624" lon="6.50559">
        <ele>1445.27</ele>
        <time>2024-03-23T15:56:53.444Z</time>
      </trkpt>
      <trkpt lat="45.37634" lon="6.50559">
        <ele>1445.43</ele>
        <time>2024-03-23T15:57:06.291Z</time>
      </trkpt>
      <trkpt lat="45.37636" lon="6.50555">
        <ele>1445.57</ele>
        <time>2024-03-23T15:57:11.083Z</time>
      </trkpt>
      <trkpt lat="45.37634" lon="6.5056">
        <ele>1445.67</ele>
        <time>2024-03-23T15:57:16.421Z</time>
      </trkpt>
      <trkpt lat="45.37635" lon="6.50557">
        <ele>1445.78</ele>
        <time>2024-03-23T15:57:19.732Z</time>
      </trkpt>
      <trkpt lat="45.37632" lon="6.50572">
        <ele>1446.07</ele>
        <time>2024-03-23T15:57:34.280Z</time>
      </trkpt>
      <trkpt lat="45.37639" lon="6.50575">
        <ele>1446.18</ele>
        <time>2024-03-23T15:57:43.644Z</time>
      </trkpt>
      <trkpt lat="45.37647" lon="6.50578">
        <ele>1446.18</ele>
        <time>2024-03-23T15:57:53.756Z</time>
      </trkpt>
      <trkpt lat="45.37648" lon="6.50575">
        <ele>1446.21</ele>
        <time>2024-03-23T15:57:56.723Z</time>
      </trkpt>
      <trkpt lat="45.37654" lon="6.50565">
        <ele>1445.94</ele>
        <time>2024-03-23T15:58:07.060Z</time>
      </trkpt>
      <trkpt lat="45.37656" lon="6.5055">
        <ele>1445.47</ele>
        <time>2024-03-23T15:58:18.557Z</time>
      </trkpt>
      <trkpt lat="45.37657" lon="6.50532">
        <ele>1444.34</ele>
        <time>2024-03-23T15:58:32.122Z</time>
      </trkpt>
      <trkpt lat="45.37651" lon="6.50524">
        <ele>1441.24</ele>
        <time>2024-03-23T15:58:40.915Z</time>
      </trkpt>
      <trkpt lat="45.37649" lon="6.50523">
        <ele>1439.42</ele>
        <time>2024-03-23T15:58:43.182Z</time>
      </trkpt>
      <trkpt lat="45.37646" lon="6.50515">
        <ele>1437.84</ele>
        <time>2024-03-23T15:58:49.995Z</time>
      </trkpt>
      <trkpt lat="45.37646" lon="6.50511">
        <ele>1436.56</ele>
        <time>2024-03-23T15:58:53.000Z</time>
      </trkpt>
      <trkpt lat="45.37648" lon="6.50507">
        <ele>1435.43</ele>
        <time>2024-03-23T15:58:56.689Z</time>
      </trkpt>
      <trkpt lat="45.37651" lon="6.50495">
        <ele>1434.19</ele>
        <time>2024-03-23T15:59:06.259Z</time>
      </trkpt>
      <trkpt lat="45.37652" lon="6.50486">
        <ele>1433.16</ele>
        <time>2024-03-23T15:59:13.105Z</time>
      </trkpt>
      <trkpt lat="45.3765" lon="6.50471">
        <ele>1432.22</ele>
        <time>2024-03-23T15:59:24.575Z</time>
      </trkpt>
      <trkpt lat="45.37653" lon="6.5046">
        <ele>1431.43</ele>
        <time>2024-03-23T15:59:33.441Z</time>
      </trkpt>
      <trkpt lat="45.37658" lon="6.5045">
        <ele>1430.92</ele>
        <time>2024-03-23T15:59:42.663Z</time>
      </trkpt>
      <trkpt lat="45.37664" lon="6.50441">
        <ele>1430.54</ele>
        <time>2024-03-23T15:59:52.012Z</time>
      </trkpt>
      <trkpt lat="45.37664" lon="6.50427">
        <ele>1429.83</ele>
        <time>2024-03-23T16:00:02.530Z</time>
      </trkpt>
      <trkpt lat="45.37674" lon="6.50415">
        <ele>1429.02</ele>
        <time>2024-03-23T16:00:16.518Z</time>
      </trkpt>
      <trkpt lat="45.37677" lon="6.50406">
        <ele>1428.44</ele>
        <time>2024-03-23T16:00:24.003Z</time>
      </trkpt>
      <trkpt lat="45.37679" lon="6.50405">
        <ele>1427.83</ele>
        <time>2024-03-23T16:00:26.270Z</time>
      </trkpt>
      <trkpt lat="45.37686" lon="6.50399">
        <ele>1427.12</ele>
        <time>2024-03-23T16:00:35.009Z</time>
      </trkpt>
      <trkpt lat="45.37694" lon="6.50404">
        <ele>1426.71</ele>
        <time>2024-03-23T16:00:44.354Z</time>
      </trkpt>
      <trkpt lat="45.37699" lon="6.50397">
        <ele>1426.48</ele>
        <time>2024-03-23T16:00:52.118Z</time>
      </trkpt>
      <trkpt lat="45.37699" lon="6.50385">
        <ele>1426.2</ele>
        <time>2024-03-23T16:01:01.439Z</time>
      </trkpt>
      <trkpt lat="45.37703" lon="6.5038">
        <ele>1426.05</ele>
        <time>2024-03-23T16:01:07.414Z</time>
      </trkpt>
      <trkpt lat="45.3771" lon="6.50379">
        <ele>1425.83</ele>
        <time>2024-03-23T16:01:15.239Z</time>
      </trkpt>
      <trkpt lat="45.37721" lon="6.50382">
        <ele>1425.76</ele>
        <time>2024-03-23T16:01:28.669Z</time>
      </trkpt>
      <trkpt lat="45.3773" lon="6.50392">
        <ele>1425.68</ele>
        <time>2024-03-23T16:01:42.328Z</time>
      </trkpt>
      <trkpt lat="45.37737" lon="6.50405">
        <ele>1425.57</ele>
        <time>2024-03-23T16:01:55.987Z</time>
      </trkpt>
      <trkpt lat="45.37745" lon="6.50416">
        <ele>1425.51</ele>
        <time>2024-03-23T16:02:09.359Z</time>
      </trkpt>
      <trkpt lat="45.37757" lon="6.5042">
        <ele>1425.34</ele>
        <time>2024-03-23T16:02:23.803Z</time>
      </trkpt>
      <trkpt lat="45.37769" lon="6.50423">
        <ele>1425.03</ele>
        <time>2024-03-23T16:02:37.590Z</time>
      </trkpt>
      <trkpt lat="45.37772" lon="6.5042">
        <ele>1424.71</ele>
        <time>2024-03-23T16:02:41.511Z</time>
      </trkpt>
      <trkpt lat="45.37776" lon="6.50419">
        <ele>1423.81</ele>
        <time>2024-03-23T16:02:45.855Z</time>
      </trkpt>
      <trkpt lat="45.37786" lon="6.50435">
        <ele>1422.41</ele>
        <time>2024-03-23T16:03:01.945Z</time>
      </trkpt>
      <trkpt lat="45.37794" lon="6.50448">
        <ele>1421.23</ele>
        <time>2024-03-23T16:03:14.930Z</time>
      </trkpt>
      <trkpt lat="45.37804" lon="6.50456">
        <ele>1420.35</ele>
        <time>2024-03-23T16:03:27.198Z</time>
      </trkpt>
      <trkpt lat="45.37805" lon="6.50454">
        <ele>1419.83</ele>
        <time>2024-03-23T16:03:29.043Z</time>
      </trkpt>
      <trkpt lat="45.37817" lon="6.50455">
        <ele>1419.06</ele>
        <time>2024-03-23T16:03:41.899Z</time>
      </trkpt>
      <trkpt lat="45.37819" lon="6.50456">
        <ele>1418.23</ele>
        <time>2024-03-23T16:03:44.167Z</time>
      </trkpt>
      <trkpt lat="45.37821" lon="6.50469">
        <ele>1417.11</ele>
        <time>2024-03-23T16:03:54.165Z</time>
      </trkpt>
      <trkpt lat="45.37829" lon="6.50477">
        <ele>1416.24</ele>
        <time>2024-03-23T16:04:04.621Z</time>
      </trkpt>
      <trkpt lat="45.37838" lon="6.50484">
        <ele>1415.04</ele>
        <time>2024-03-23T16:04:15.590Z</time>
      </trkpt>
      <trkpt lat="45.37842" lon="6.50484">
        <ele>1415.06</ele>
        <time>2024-03-23T16:04:20.555Z</time>
      </trkpt>
      <trkpt lat="45.37847" lon="6.50488">
        <ele>1414.41</ele>
        <time>2024-03-23T16:04:26.690Z</time>
      </trkpt>
      <trkpt lat="45.37851" lon="6.50487">
        <ele>1412.82</ele>
        <time>2024-03-23T16:04:31.033Z</time>
      </trkpt>
      <trkpt lat="45.37856" lon="6.50482">
        <ele>1410.54</ele>
        <time>2024-03-23T16:04:37.569Z</time>
      </trkpt>
      <trkpt lat="45.37857" lon="6.50476">
        <ele>1410.34</ele>
        <time>2024-03-23T16:04:42.201Z</time>
      </trkpt>
      <trkpt lat="45.37863" lon="6.5048">
        <ele>1409.97</ele>
        <time>2024-03-23T16:04:49.287Z</time>
      </trkpt>
      <trkpt lat="45.37867" lon="6.50473">
        <ele>1409.58</ele>
        <time>2024-03-23T16:04:56.067Z</time>
      </trkpt>
      <trkpt lat="45.37866" lon="6.50474">
        <ele>1409.14</ele>
        <time>2024-03-23T16:04:57.374Z</time>
      </trkpt>
      <trkpt lat="45.37868" lon="6.50472">
        <ele>1408.73</ele>
        <time>2024-03-23T16:04:59.988Z</time>
      </trkpt>
      <trkpt lat="45.37877" lon="6.5047">
        <ele>1408.15</ele>
        <time>2024-03-23T16:05:09.730Z</time>
      </trkpt>
      <trkpt lat="45.37881" lon="6.50469">
        <ele>1407.74</ele>
        <time>2024-03-23T16:05:14.074Z</time>
      </trkpt>
      <trkpt lat="45.37886" lon="6.50476">
        <ele>1406.96</ele>
        <time>2024-03-23T16:05:21.574Z</time>
      </trkpt>
      <trkpt lat="45.37894" lon="6.5046">
        <ele>1405.11</ele>
        <time>2024-03-23T16:05:36.329Z</time>
      </trkpt>
      <trkpt lat="45.37895" lon="6.50457">
        <ele>1403.43</ele>
        <time>2024-03-23T16:05:38.824Z</time>
      </trkpt>
      <trkpt lat="45.37896" lon="6.50451">
        <ele>1402</ele>
        <time>2024-03-23T16:05:43.457Z</time>
      </trkpt>
      <trkpt lat="45.379" lon="6.50445">
        <ele>1400.75</ele>
        <time>2024-03-23T16:05:49.671Z</time>
      </trkpt>
      <trkpt lat="45.37897" lon="6.50451">
        <ele>1399.93</ele>
        <time>2024-03-23T16:05:55.204Z</time>
      </trkpt>
      <trkpt lat="45.37896" lon="6.50454">
        <ele>1399.04</ele>
        <time>2024-03-23T16:05:57.699Z</time>
      </trkpt>
      <trkpt lat="45.37899" lon="6.50451">
        <ele>1398.19</ele>
        <time>2024-03-23T16:06:01.620Z</time>
      </trkpt>
      <trkpt lat="45.37914" lon="6.50444">
        <ele>1396.98</ele>
        <time>2024-03-23T16:06:18.503Z</time>
      </trkpt>
      <trkpt lat="45.37921" lon="6.50451">
        <ele>1395.92</ele>
        <time>2024-03-23T16:06:27.653Z</time>
      </trkpt>
      <trkpt lat="45.3792" lon="6.5046">
        <ele>1395.3</ele>
        <time>2024-03-23T16:06:34.498Z</time>
      </trkpt>
      <trkpt lat="45.37922" lon="6.5047">
        <ele>1394.77</ele>
        <time>2024-03-23T16:06:42.309Z</time>
      </trkpt>
      <trkpt lat="45.37921" lon="6.50468">
        <ele>1393.69</ele>
        <time>2024-03-23T16:06:44.154Z</time>
      </trkpt>
      <trkpt lat="45.3792" lon="6.50467">
        <ele>1392.98</ele>
        <time>2024-03-23T16:06:45.461Z</time>
      </trkpt>
      <trkpt lat="45.3792" lon="6.50468">
        <ele>1392.35</ele>
        <time>2024-03-23T16:06:46.212Z</time>
      </trkpt>
      <trkpt lat="45.37921" lon="6.50469">
        <ele>1391.92</ele>
        <time>2024-03-23T16:06:47.519Z</time>
      </trkpt>
      <trkpt lat="45.3792" lon="6.50468">
        <ele>1391.89</ele>
        <time>2024-03-23T16:06:48.906Z</time>
      </trkpt>
      <trkpt lat="45.37921" lon="6.50467">
        <ele>1391.69</ele>
        <time>2024-03-23T16:06:50.213Z</time>
      </trkpt>
      <trkpt lat="45.37934" lon="6.50454">
        <ele>1391.3</ele>
        <time>2024-03-23T16:07:08.239Z</time>
      </trkpt>
      <trkpt lat="45.37939" lon="6.50448">
        <ele>1390.99</ele>
        <time>2024-03-23T16:07:15.233Z</time>
      </trkpt>
      <trkpt lat="45.37952" lon="6.5046">
        <ele>1390.7</ele>
        <time>2024-03-23T16:07:33.122Z</time>
      </trkpt>
      <trkpt lat="45.37958" lon="6.50476">
        <ele>1390.64</ele>
        <time>2024-03-23T16:07:48.472Z</time>
      </trkpt>
      <trkpt lat="45.37968" lon="6.50488">
        <ele>1390.42</ele>
        <time>2024-03-23T16:08:03.659Z</time>
      </trkpt>
      <trkpt lat="45.37977" lon="6.50502">
        <ele>1390.18</ele>
        <time>2024-03-23T16:08:19.085Z</time>
      </trkpt>
      <trkpt lat="45.37982" lon="6.50518">
        <ele>1390.13</ele>
        <time>2024-03-23T16:08:33.934Z</time>
      </trkpt>
      <trkpt lat="45.37976" lon="6.50524">
        <ele>1390.17</ele>
        <time>2024-03-23T16:08:43.049Z</time>
      </trkpt>
      <trkpt lat="45.37978" lon="6.50525">
        <ele>1390.19</ele>
        <time>2024-03-23T16:08:45.717Z</time>
      </trkpt>
      <trkpt lat="45.37979" lon="6.50525">
        <ele>1390.26</ele>
        <time>2024-03-23T16:08:47.248Z</time>
      </trkpt>
      <trkpt lat="45.37979" lon="6.50527">
        <ele>1390.28</ele>
        <time>2024-03-23T16:08:49.042Z</time>
      </trkpt>
      <trkpt lat="45.3798" lon="6.5053">
        <ele>1390.32</ele>
        <time>2024-03-23T16:08:52.050Z</time>
      </trkpt>
      <trkpt lat="45.3798" lon="6.50532">
        <ele>1390.37</ele>
        <time>2024-03-23T16:08:53.970Z</time>
      </trkpt>
      <trkpt lat="45.37976" lon="6.50534">
        <ele>1390.4</ele>
        <time>2024-03-23T16:08:59.267Z</time>
      </trkpt>
      <trkpt lat="45.38002" lon="6.50483">
        <ele>1389.6</ele>
        <time>2024-03-23T16:09:50.476Z</time>
      </trkpt>
      <trkpt lat="45.37965" lon="6.50482">
        <ele>1389.82</ele>
        <time>2024-03-23T16:10:36.550Z</time>
      </trkpt>
      <trkpt lat="45.37974" lon="6.50488">
        <ele>1389.88</ele>
        <time>2024-03-23T16:10:48.926Z</time>
      </trkpt>
      <trkpt lat="45.37976" lon="6.50472">
        <ele>1389.72</ele>
        <time>2024-03-23T16:11:02.295Z</time>
      </trkpt>
      <trkpt lat="45.37985" lon="6.50469">
        <ele>1389.8</ele>
        <time>2024-03-23T16:11:13.900Z</time>
      </trkpt>
      <trkpt lat="45.3799" lon="6.50453">
        <ele>1389.27</ele>
        <time>2024-03-23T16:11:27.114Z</time>
      </trkpt>
      <trkpt lat="45.38" lon="6.5045">
        <ele>1388.7</ele>
        <time>2024-03-23T16:11:38.044Z</time>
      </trkpt>
      <trkpt lat="45.3801" lon="6.50445">
        <ele>1387.56</ele>
        <time>2024-03-23T16:11:49.380Z</time>
      </trkpt>
      <trkpt lat="45.3802" lon="6.50436">
        <ele>1386.87</ele>
        <time>2024-03-23T16:12:02.034Z</time>
      </trkpt>
      <trkpt lat="45.38031" lon="6.50432">
        <ele>1386.35</ele>
        <time>2024-03-23T16:12:14.176Z</time>
      </trkpt>
      <trkpt lat="45.38042" lon="6.50427">
        <ele>1384.82</ele>
        <time>2024-03-23T16:12:26.527Z</time>
      </trkpt>
      <trkpt lat="45.38055" lon="6.50426">
        <ele>1383.4</ele>
        <time>2024-03-23T16:12:40.451Z</time>
      </trkpt>
      <trkpt lat="45.38069" lon="6.50431">
        <ele>1382.25</ele>
        <time>2024-03-23T16:12:55.889Z</time>
      </trkpt>
      <trkpt lat="45.38086" lon="6.50436">
        <ele>1381.05</ele>
        <time>2024-03-23T16:13:14.455Z</time>
      </trkpt>
      <trkpt lat="45.381" lon="6.50442">
        <ele>1379.99</ele>
        <time>2024-03-23T16:13:30.093Z</time>
      </trkpt>
      <trkpt lat="45.3811" lon="6.50447">
        <ele>1378.83</ele>
        <time>2024-03-23T16:13:41.429Z</time>
      </trkpt>
      <trkpt lat="45.38115" lon="6.50436">
        <ele>1378.06</ele>
        <time>2024-03-23T16:13:51.272Z</time>
      </trkpt>
      <trkpt lat="45.38122" lon="6.50419">
        <ele>1377.01</ele>
        <time>2024-03-23T16:14:06.076Z</time>
      </trkpt>
      <trkpt lat="45.38134" lon="6.50409">
        <ele>1376.02</ele>
        <time>2024-03-23T16:14:20.947Z</time>
      </trkpt>
      <trkpt lat="45.38136" lon="6.50409">
        <ele>1375.41</ele>
        <time>2024-03-23T16:14:23.086Z</time>
      </trkpt>
      <trkpt lat="45.38136" lon="6.50411">
        <ele>1374.84</ele>
        <time>2024-03-23T16:14:24.589Z</time>
      </trkpt>
      <trkpt lat="45.38135" lon="6.50413">
        <ele>1374.41</ele>
        <time>2024-03-23T16:14:26.433Z</time>
      </trkpt>
      <trkpt lat="45.38134" lon="6.50416">
        <ele>1374.01</ele>
        <time>2024-03-23T16:14:28.928Z</time>
      </trkpt>
      <trkpt lat="45.3813" lon="6.50412">
        <ele>1373.66</ele>
        <time>2024-03-23T16:14:34.156Z</time>
      </trkpt>
      <trkpt lat="45.38131" lon="6.50414">
        <ele>1373.3</ele>
        <time>2024-03-23T16:14:36.000Z</time>
        <extensions>
          <visugpx:TrkExtension xmlns:visugpx="https://www.visugpx.com/editgpx/">
            <visugpx:node>10</visugpx:node>
            </visugpx:TrkExtension>
        </extensions>
      </trkpt>
    </trkseg>
  </trk>
</gpx>